<?xml version="1.0" encoding="UTF-8" standalone="no" ?>
<gpx xmlns="http://www.topografix.com/GPX/1/1" xmlns:xsi="http://www.w3.org/2001/XMLSchema-instance" xsi:schemaLocation="http://www.topografix.com/GPX/1/1 http://www.topografix.com/GPX/1/1/gpx.xsd" version="1.1" creator="VisuGPX - https://www.visugpx.com">
  <metadata>
    <name>Rando 12 Km Allery</name>
    <desc><![CDATA[Walkmeter Marche 7 juil. 2013 09:19:46]]></desc>
  </metadata>
  <trk>
    <name><![CDATA[Ch en S. Allery]]></name>
    <trkseg>
      <trkpt lat="49.963" lon="1.89785">
        <ele>-20</ele>
        <time>2013-07-07T07:19:46Z</time>
      </trkpt>
      <trkpt lat="49.9631" lon="1.89785">
        <ele>-21.7</ele>
        <time>2013-07-07T07:19:51Z</time>
      </trkpt>
      <trkpt lat="49.96304" lon="1.89787">
        <ele>-22.3</ele>
        <time>2013-07-07T07:19:52Z</time>
      </trkpt>
      <trkpt lat="49.96308" lon="1.89791">
        <ele>-23</ele>
        <time>2013-07-07T07:19:53Z</time>
      </trkpt>
      <trkpt lat="49.96303" lon="1.89788">
        <ele>-21.7</ele>
        <time>2013-07-07T07:19:55Z</time>
      </trkpt>
      <trkpt lat="49.96301" lon="1.89775">
        <ele>-15.1</ele>
        <time>2013-07-07T07:20:06Z</time>
      </trkpt>
      <trkpt lat="49.96289" lon="1.89783">
        <ele>-7.8</ele>
        <time>2013-07-07T07:20:18Z</time>
      </trkpt>
      <trkpt lat="49.96287" lon="1.89777">
        <ele>0.6</ele>
        <time>2013-07-07T07:20:32Z</time>
      </trkpt>
      <trkpt lat="49.96272" lon="1.89783">
        <ele>7.2</ele>
        <time>2013-07-07T07:20:43Z</time>
      </trkpt>
      <trkpt lat="49.9626" lon="1.89797">
        <ele>18.1</ele>
        <time>2013-07-07T07:21:01Z</time>
      </trkpt>
      <trkpt lat="49.96251" lon="1.89792">
        <ele>27.8</ele>
        <time>2013-07-07T07:21:17Z</time>
      </trkpt>
      <trkpt lat="49.96236" lon="1.89788">
        <ele>32.6</ele>
        <time>2013-07-07T07:21:25Z</time>
      </trkpt>
      <trkpt lat="49.96224" lon="1.89778">
        <ele>37.4</ele>
        <time>2013-07-07T07:21:33Z</time>
      </trkpt>
      <trkpt lat="49.96212" lon="1.8977">
        <ele>35.3</ele>
        <time>2013-07-07T07:21:40Z</time>
      </trkpt>
      <trkpt lat="49.96199" lon="1.8978">
        <ele>34.6</ele>
        <time>2013-07-07T07:21:53Z</time>
      </trkpt>
      <trkpt lat="49.96184" lon="1.89783">
        <ele>31.5</ele>
        <time>2013-07-07T07:22:05Z</time>
      </trkpt>
      <trkpt lat="49.9617" lon="1.89786">
        <ele>26.1</ele>
        <time>2013-07-07T07:22:20Z</time>
      </trkpt>
      <trkpt lat="49.96156" lon="1.89787">
        <ele>26.5</ele>
        <time>2013-07-07T07:22:31Z</time>
      </trkpt>
      <trkpt lat="49.96142" lon="1.89793">
        <ele>26.8</ele>
        <time>2013-07-07T07:22:41Z</time>
      </trkpt>
      <trkpt lat="49.96129" lon="1.89796">
        <ele>27.3</ele>
        <time>2013-07-07T07:22:50Z</time>
      </trkpt>
      <trkpt lat="49.96115" lon="1.89804">
        <ele>32.8</ele>
        <time>2013-07-07T07:23:04Z</time>
      </trkpt>
      <trkpt lat="49.96101" lon="1.89805">
        <ele>38.4</ele>
        <time>2013-07-07T07:23:14Z</time>
      </trkpt>
      <trkpt lat="49.9609" lon="1.89817">
        <ele>40.4</ele>
        <time>2013-07-07T07:23:26Z</time>
      </trkpt>
      <trkpt lat="49.96075" lon="1.89817">
        <ele>42.7</ele>
        <time>2013-07-07T07:23:37Z</time>
      </trkpt>
      <trkpt lat="49.96062" lon="1.8982">
        <ele>44</ele>
        <time>2013-07-07T07:23:42Z</time>
      </trkpt>
      <trkpt lat="49.96054" lon="1.89837">
        <ele>38</ele>
        <time>2013-07-07T07:23:58Z</time>
      </trkpt>
      <trkpt lat="49.96042" lon="1.89848">
        <ele>31</ele>
        <time>2013-07-07T07:24:11Z</time>
      </trkpt>
      <trkpt lat="49.96031" lon="1.8986">
        <ele>29.8</ele>
        <time>2013-07-07T07:24:21Z</time>
      </trkpt>
      <trkpt lat="49.96019" lon="1.89868">
        <ele>31.3</ele>
        <time>2013-07-07T07:24:33Z</time>
      </trkpt>
      <trkpt lat="49.96005" lon="1.89871">
        <ele>31.6</ele>
        <time>2013-07-07T07:24:47Z</time>
      </trkpt>
      <trkpt lat="49.95991" lon="1.89868">
        <ele>31.1</ele>
        <time>2013-07-07T07:24:57Z</time>
      </trkpt>
      <trkpt lat="49.95979" lon="1.89878">
        <ele>33.5</ele>
        <time>2013-07-07T07:25:07Z</time>
      </trkpt>
      <trkpt lat="49.95964" lon="1.89886">
        <ele>38.3</ele>
        <time>2013-07-07T07:25:19Z</time>
      </trkpt>
      <trkpt lat="49.9595" lon="1.8989">
        <ele>43.7</ele>
        <time>2013-07-07T07:25:28Z</time>
      </trkpt>
      <trkpt lat="49.95936" lon="1.89892">
        <ele>49.3</ele>
        <time>2013-07-07T07:25:39Z</time>
      </trkpt>
      <trkpt lat="49.95922" lon="1.89895">
        <ele>54.4</ele>
        <time>2013-07-07T07:25:49Z</time>
      </trkpt>
      <trkpt lat="49.95908" lon="1.89899">
        <ele>53.4</ele>
        <time>2013-07-07T07:25:59Z</time>
      </trkpt>
      <trkpt lat="49.95894" lon="1.89901">
        <ele>52</ele>
        <time>2013-07-07T07:26:10Z</time>
      </trkpt>
      <trkpt lat="49.95881" lon="1.89905">
        <ele>52.7</ele>
        <time>2013-07-07T07:26:22Z</time>
      </trkpt>
      <trkpt lat="49.95867" lon="1.89908">
        <ele>55.2</ele>
        <time>2013-07-07T07:26:32Z</time>
      </trkpt>
      <trkpt lat="49.95853" lon="1.89907">
        <ele>57.4</ele>
        <time>2013-07-07T07:26:46Z</time>
      </trkpt>
      <trkpt lat="49.95839" lon="1.89905">
        <ele>58.7</ele>
        <time>2013-07-07T07:26:56Z</time>
      </trkpt>
      <trkpt lat="49.95825" lon="1.89898">
        <ele>62.8</ele>
        <time>2013-07-07T07:27:05Z</time>
      </trkpt>
      <trkpt lat="49.95818" lon="1.89897">
        <ele>64.3</ele>
        <time>2013-07-07T07:27:11Z</time>
      </trkpt>
      <trkpt lat="49.95805" lon="1.89906">
        <ele>61.5</ele>
        <time>2013-07-07T07:27:26Z</time>
      </trkpt>
      <trkpt lat="49.95791" lon="1.89909">
        <ele>64.5</ele>
        <time>2013-07-07T07:27:36Z</time>
      </trkpt>
      <trkpt lat="49.95781" lon="1.89922">
        <ele>62.3</ele>
        <time>2013-07-07T07:27:49Z</time>
      </trkpt>
      <trkpt lat="49.95767" lon="1.89921">
        <ele>62.8</ele>
        <time>2013-07-07T07:27:58Z</time>
      </trkpt>
      <trkpt lat="49.95754" lon="1.8992">
        <ele>63.3</ele>
        <time>2013-07-07T07:28:08Z</time>
      </trkpt>
      <trkpt lat="49.95739" lon="1.8992">
        <ele>63.8</ele>
        <time>2013-07-07T07:28:18Z</time>
      </trkpt>
      <trkpt lat="49.95726" lon="1.89923">
        <ele>64.5</ele>
        <time>2013-07-07T07:28:31Z</time>
      </trkpt>
      <trkpt lat="49.95712" lon="1.89925">
        <ele>65</ele>
        <time>2013-07-07T07:28:41Z</time>
      </trkpt>
      <trkpt lat="49.95698" lon="1.89928">
        <ele>65.7</ele>
        <time>2013-07-07T07:28:54Z</time>
      </trkpt>
      <trkpt lat="49.95684" lon="1.89922">
        <ele>64.9</ele>
        <time>2013-07-07T07:29:04Z</time>
      </trkpt>
      <trkpt lat="49.9567" lon="1.8992">
        <ele>63.2</ele>
        <time>2013-07-07T07:29:15Z</time>
      </trkpt>
      <trkpt lat="49.95656" lon="1.8992">
        <ele>63.8</ele>
        <time>2013-07-07T07:29:25Z</time>
      </trkpt>
      <trkpt lat="49.95642" lon="1.89919">
        <ele>64.5</ele>
        <time>2013-07-07T07:29:36Z</time>
      </trkpt>
      <trkpt lat="49.95628" lon="1.89916">
        <ele>64.9</ele>
        <time>2013-07-07T07:29:44Z</time>
      </trkpt>
      <trkpt lat="49.95612" lon="1.89915">
        <ele>65.7</ele>
        <time>2013-07-07T07:29:57Z</time>
      </trkpt>
      <trkpt lat="49.95599" lon="1.89917">
        <ele>66.3</ele>
        <time>2013-07-07T07:30:08Z</time>
      </trkpt>
      <trkpt lat="49.95585" lon="1.89918">
        <ele>67</ele>
        <time>2013-07-07T07:30:19Z</time>
      </trkpt>
      <trkpt lat="49.95572" lon="1.89909">
        <ele>65.8</ele>
        <time>2013-07-07T07:30:36Z</time>
      </trkpt>
      <trkpt lat="49.95557" lon="1.8991">
        <ele>67.1</ele>
        <time>2013-07-07T07:30:45Z</time>
      </trkpt>
      <trkpt lat="49.95543" lon="1.89904">
        <ele>68.2</ele>
        <time>2013-07-07T07:30:52Z</time>
      </trkpt>
      <trkpt lat="49.95529" lon="1.89895">
        <ele>67.8</ele>
        <time>2013-07-07T07:31:04Z</time>
      </trkpt>
      <trkpt lat="49.95516" lon="1.89887">
        <ele>66.3</ele>
        <time>2013-07-07T07:31:12Z</time>
      </trkpt>
      <trkpt lat="49.95501" lon="1.89877">
        <ele>66.5</ele>
        <time>2013-07-07T07:31:20Z</time>
      </trkpt>
      <trkpt lat="49.95488" lon="1.89865">
        <ele>67</ele>
        <time>2013-07-07T07:31:26Z</time>
      </trkpt>
      <trkpt lat="49.95489" lon="1.89866">
        <ele>67.2</ele>
        <time>2013-07-07T07:31:28Z</time>
      </trkpt>
      <trkpt lat="49.95475" lon="1.89861">
        <ele>68.7</ele>
        <time>2013-07-07T07:31:46Z</time>
      </trkpt>
      <trkpt lat="49.95461" lon="1.89854">
        <ele>71.5</ele>
        <time>2013-07-07T07:31:58Z</time>
      </trkpt>
      <trkpt lat="49.95447" lon="1.89851">
        <ele>73.1</ele>
        <time>2013-07-07T07:32:09Z</time>
      </trkpt>
      <trkpt lat="49.95435" lon="1.8984">
        <ele>74.3</ele>
        <time>2013-07-07T07:32:19Z</time>
      </trkpt>
      <trkpt lat="49.95424" lon="1.89825">
        <ele>75.7</ele>
        <time>2013-07-07T07:32:31Z</time>
      </trkpt>
      <trkpt lat="49.95411" lon="1.89816">
        <ele>77.9</ele>
        <time>2013-07-07T07:32:44Z</time>
      </trkpt>
      <trkpt lat="49.954" lon="1.89804">
        <ele>79</ele>
        <time>2013-07-07T07:32:54Z</time>
      </trkpt>
      <trkpt lat="49.95386" lon="1.898">
        <ele>79.6</ele>
        <time>2013-07-07T07:33:08Z</time>
      </trkpt>
      <trkpt lat="49.95374" lon="1.89785">
        <ele>80.8</ele>
        <time>2013-07-07T07:33:17Z</time>
      </trkpt>
      <trkpt lat="49.95361" lon="1.89776">
        <ele>83</ele>
        <time>2013-07-07T07:33:30Z</time>
      </trkpt>
      <trkpt lat="49.95349" lon="1.89766">
        <ele>84.5</ele>
        <time>2013-07-07T07:33:42Z</time>
      </trkpt>
      <trkpt lat="49.95335" lon="1.89764">
        <ele>86.5</ele>
        <time>2013-07-07T07:33:53Z</time>
      </trkpt>
      <trkpt lat="49.95321" lon="1.89757">
        <ele>87.2</ele>
        <time>2013-07-07T07:34:05Z</time>
      </trkpt>
      <trkpt lat="49.95307" lon="1.89754">
        <ele>88</ele>
        <time>2013-07-07T07:34:18Z</time>
      </trkpt>
      <trkpt lat="49.95294" lon="1.89751">
        <ele>88.4</ele>
        <time>2013-07-07T07:34:25Z</time>
      </trkpt>
      <trkpt lat="49.95282" lon="1.8974">
        <ele>89.2</ele>
        <time>2013-07-07T07:34:36Z</time>
      </trkpt>
      <trkpt lat="49.95269" lon="1.89734">
        <ele>93</ele>
        <time>2013-07-07T07:34:49Z</time>
      </trkpt>
      <trkpt lat="49.95255" lon="1.89726">
        <ele>93.9</ele>
        <time>2013-07-07T07:35:01Z</time>
      </trkpt>
      <trkpt lat="49.95243" lon="1.89717">
        <ele>95.1</ele>
        <time>2013-07-07T07:35:15Z</time>
      </trkpt>
      <trkpt lat="49.9523" lon="1.89709">
        <ele>95.7</ele>
        <time>2013-07-07T07:35:26Z</time>
      </trkpt>
      <trkpt lat="49.95219" lon="1.89697">
        <ele>92.6</ele>
        <time>2013-07-07T07:35:38Z</time>
      </trkpt>
      <trkpt lat="49.95206" lon="1.8969">
        <ele>90.4</ele>
        <time>2013-07-07T07:35:53Z</time>
      </trkpt>
      <trkpt lat="49.95192" lon="1.89686">
        <ele>91</ele>
        <time>2013-07-07T07:36:03Z</time>
      </trkpt>
      <trkpt lat="49.95179" lon="1.89677">
        <ele>92.3</ele>
        <time>2013-07-07T07:36:12Z</time>
      </trkpt>
      <trkpt lat="49.95165" lon="1.89678">
        <ele>93.9</ele>
        <time>2013-07-07T07:36:23Z</time>
      </trkpt>
      <trkpt lat="49.95152" lon="1.8967">
        <ele>95.2</ele>
        <time>2013-07-07T07:36:35Z</time>
      </trkpt>
      <trkpt lat="49.95139" lon="1.8967">
        <ele>96.7</ele>
        <time>2013-07-07T07:36:49Z</time>
      </trkpt>
      <trkpt lat="49.95125" lon="1.89664">
        <ele>98</ele>
        <time>2013-07-07T07:37:01Z</time>
      </trkpt>
      <trkpt lat="49.95113" lon="1.89653">
        <ele>98.8</ele>
        <time>2013-07-07T07:37:14Z</time>
      </trkpt>
      <trkpt lat="49.95099" lon="1.89645">
        <ele>101.8</ele>
        <time>2013-07-07T07:37:23Z</time>
      </trkpt>
      <trkpt lat="49.95086" lon="1.8964">
        <ele>99.4</ele>
        <time>2013-07-07T07:37:36Z</time>
      </trkpt>
      <trkpt lat="49.95073" lon="1.89632">
        <ele>100.7</ele>
        <time>2013-07-07T07:37:45Z</time>
      </trkpt>
      <trkpt lat="49.9506" lon="1.89624">
        <ele>102</ele>
        <time>2013-07-07T07:37:54Z</time>
      </trkpt>
      <trkpt lat="49.95047" lon="1.89617">
        <ele>103.8</ele>
        <time>2013-07-07T07:38:09Z</time>
      </trkpt>
      <trkpt lat="49.95034" lon="1.89607">
        <ele>104.3</ele>
        <time>2013-07-07T07:38:21Z</time>
      </trkpt>
      <trkpt lat="49.95022" lon="1.89597">
        <ele>101.9</ele>
        <time>2013-07-07T07:38:31Z</time>
      </trkpt>
      <trkpt lat="49.9501" lon="1.89585">
        <ele>104.6</ele>
        <time>2013-07-07T07:38:44Z</time>
      </trkpt>
      <trkpt lat="49.94998" lon="1.89576">
        <ele>102.3</ele>
        <time>2013-07-07T07:38:54Z</time>
      </trkpt>
      <trkpt lat="49.94986" lon="1.89565">
        <ele>103.3</ele>
        <time>2013-07-07T07:39:04Z</time>
      </trkpt>
      <trkpt lat="49.94975" lon="1.89551">
        <ele>104.3</ele>
        <time>2013-07-07T07:39:13Z</time>
      </trkpt>
      <trkpt lat="49.94963" lon="1.89539">
        <ele>105.6</ele>
        <time>2013-07-07T07:39:26Z</time>
      </trkpt>
      <trkpt lat="49.9495" lon="1.89531">
        <ele>109.3</ele>
        <time>2013-07-07T07:39:38Z</time>
      </trkpt>
      <trkpt lat="49.94938" lon="1.89518">
        <ele>111.3</ele>
        <time>2013-07-07T07:39:47Z</time>
      </trkpt>
      <trkpt lat="49.94925" lon="1.89513">
        <ele>112.1</ele>
        <time>2013-07-07T07:39:59Z</time>
      </trkpt>
      <trkpt lat="49.94911" lon="1.89507">
        <ele>113</ele>
        <time>2013-07-07T07:40:12Z</time>
      </trkpt>
      <trkpt lat="49.94898" lon="1.89502">
        <ele>113.8</ele>
        <time>2013-07-07T07:40:24Z</time>
      </trkpt>
      <trkpt lat="49.94887" lon="1.89487">
        <ele>114.6</ele>
        <time>2013-07-07T07:40:32Z</time>
      </trkpt>
      <trkpt lat="49.94873" lon="1.89479">
        <ele>115.7</ele>
        <time>2013-07-07T07:40:41Z</time>
      </trkpt>
      <trkpt lat="49.94864" lon="1.89461">
        <ele>117.2</ele>
        <time>2013-07-07T07:40:47Z</time>
      </trkpt>
      <trkpt lat="49.94859" lon="1.89439">
        <ele>118.7</ele>
        <time>2013-07-07T07:40:52Z</time>
      </trkpt>
      <trkpt lat="49.94853" lon="1.89433">
        <ele>118.4</ele>
        <time>2013-07-07T07:41:00Z</time>
      </trkpt>
      <trkpt lat="49.94841" lon="1.89443">
        <ele>117.4</ele>
        <time>2013-07-07T07:41:11Z</time>
      </trkpt>
      <trkpt lat="49.94829" lon="1.89432">
        <ele>116.5</ele>
        <time>2013-07-07T07:41:21Z</time>
      </trkpt>
      <trkpt lat="49.94815" lon="1.89429">
        <ele>115.2</ele>
        <time>2013-07-07T07:41:31Z</time>
      </trkpt>
      <trkpt lat="49.94803" lon="1.89419">
        <ele>113.7</ele>
        <time>2013-07-07T07:41:40Z</time>
      </trkpt>
      <trkpt lat="49.94791" lon="1.89408">
        <ele>113.9</ele>
        <time>2013-07-07T07:41:52Z</time>
      </trkpt>
      <trkpt lat="49.94781" lon="1.89392">
        <ele>115.1</ele>
        <time>2013-07-07T07:42:04Z</time>
      </trkpt>
      <trkpt lat="49.94768" lon="1.8938">
        <ele>115.8</ele>
        <time>2013-07-07T07:42:13Z</time>
      </trkpt>
      <trkpt lat="49.94756" lon="1.8937">
        <ele>114</ele>
        <time>2013-07-07T07:42:20Z</time>
      </trkpt>
      <trkpt lat="49.94744" lon="1.89358">
        <ele>114.2</ele>
        <time>2013-07-07T07:42:33Z</time>
      </trkpt>
      <trkpt lat="49.94734" lon="1.89341">
        <ele>115.7</ele>
        <time>2013-07-07T07:42:45Z</time>
      </trkpt>
      <trkpt lat="49.94719" lon="1.89336">
        <ele>116.7</ele>
        <time>2013-07-07T07:42:53Z</time>
      </trkpt>
      <trkpt lat="49.94705" lon="1.89328">
        <ele>119.5</ele>
        <time>2013-07-07T07:43:00Z</time>
      </trkpt>
      <trkpt lat="49.94692" lon="1.89319">
        <ele>123</ele>
        <time>2013-07-07T07:43:10Z</time>
      </trkpt>
      <trkpt lat="49.94679" lon="1.89313">
        <ele>123</ele>
        <time>2013-07-07T07:43:22Z</time>
      </trkpt>
      <trkpt lat="49.94668" lon="1.89298">
        <ele>123</ele>
        <time>2013-07-07T07:43:31Z</time>
      </trkpt>
      <trkpt lat="49.94655" lon="1.8929">
        <ele>123</ele>
        <time>2013-07-07T07:43:41Z</time>
      </trkpt>
      <trkpt lat="49.9464" lon="1.89289">
        <ele>123</ele>
        <time>2013-07-07T07:43:50Z</time>
      </trkpt>
      <trkpt lat="49.94627" lon="1.89296">
        <ele>122.6</ele>
        <time>2013-07-07T07:44:00Z</time>
      </trkpt>
      <trkpt lat="49.94612" lon="1.89295">
        <ele>121.6</ele>
        <time>2013-07-07T07:44:09Z</time>
      </trkpt>
      <trkpt lat="49.94608" lon="1.89292">
        <ele>121.2</ele>
        <time>2013-07-07T07:44:13Z</time>
      </trkpt>
      <trkpt lat="49.94593" lon="1.89293">
        <ele>119.8</ele>
        <time>2013-07-07T07:44:25Z</time>
      </trkpt>
      <trkpt lat="49.94579" lon="1.89288">
        <ele>118.7</ele>
        <time>2013-07-07T07:44:36Z</time>
      </trkpt>
      <trkpt lat="49.94564" lon="1.89284">
        <ele>117.3</ele>
        <time>2013-07-07T07:44:46Z</time>
      </trkpt>
      <trkpt lat="49.94552" lon="1.89277">
        <ele>115.8</ele>
        <time>2013-07-07T07:44:54Z</time>
      </trkpt>
      <trkpt lat="49.94535" lon="1.8928">
        <ele>113.3</ele>
        <time>2013-07-07T07:45:06Z</time>
      </trkpt>
      <trkpt lat="49.94522" lon="1.89284">
        <ele>108.4</ele>
        <time>2013-07-07T07:45:21Z</time>
      </trkpt>
      <trkpt lat="49.94508" lon="1.89289">
        <ele>107.5</ele>
        <time>2013-07-07T07:45:29Z</time>
      </trkpt>
      <trkpt lat="49.94493" lon="1.89293">
        <ele>105.3</ele>
        <time>2013-07-07T07:45:36Z</time>
      </trkpt>
      <trkpt lat="49.94479" lon="1.8929">
        <ele>104.5</ele>
        <time>2013-07-07T07:45:47Z</time>
      </trkpt>
      <trkpt lat="49.94471" lon="1.89273">
        <ele>106.1</ele>
        <time>2013-07-07T07:45:59Z</time>
      </trkpt>
      <trkpt lat="49.94456" lon="1.89275">
        <ele>105.8</ele>
        <time>2013-07-07T07:46:07Z</time>
      </trkpt>
      <trkpt lat="49.94444" lon="1.89264">
        <ele>96.1</ele>
        <time>2013-07-07T07:46:18Z</time>
      </trkpt>
      <trkpt lat="49.94431" lon="1.89263">
        <ele>97</ele>
        <time>2013-07-07T07:46:28Z</time>
      </trkpt>
      <trkpt lat="49.94417" lon="1.89258">
        <ele>98.6</ele>
        <time>2013-07-07T07:46:44Z</time>
      </trkpt>
      <trkpt lat="49.94402" lon="1.89257">
        <ele>99.5</ele>
        <time>2013-07-07T07:46:50Z</time>
      </trkpt>
      <trkpt lat="49.94388" lon="1.89257">
        <ele>100.6</ele>
        <time>2013-07-07T07:46:57Z</time>
      </trkpt>
      <trkpt lat="49.94374" lon="1.89253">
        <ele>102.3</ele>
        <time>2013-07-07T07:47:07Z</time>
      </trkpt>
      <trkpt lat="49.9436" lon="1.89256">
        <ele>104.2</ele>
        <time>2013-07-07T07:47:14Z</time>
      </trkpt>
      <trkpt lat="49.94356" lon="1.89249">
        <ele>104.2</ele>
        <time>2013-07-07T07:47:20Z</time>
      </trkpt>
      <trkpt lat="49.94342" lon="1.89242">
        <ele>102.8</ele>
        <time>2013-07-07T07:47:30Z</time>
      </trkpt>
      <trkpt lat="49.94336" lon="1.89237">
        <ele>103.2</ele>
        <time>2013-07-07T07:47:36Z</time>
      </trkpt>
      <trkpt lat="49.94321" lon="1.89233">
        <ele>104.5</ele>
        <time>2013-07-07T07:47:51Z</time>
      </trkpt>
      <trkpt lat="49.94307" lon="1.89229">
        <ele>102.3</ele>
        <time>2013-07-07T07:47:59Z</time>
      </trkpt>
      <trkpt lat="49.94292" lon="1.89227">
        <ele>100.1</ele>
        <time>2013-07-07T07:48:08Z</time>
      </trkpt>
      <trkpt lat="49.94278" lon="1.89221">
        <ele>97.9</ele>
        <time>2013-07-07T07:48:18Z</time>
      </trkpt>
      <trkpt lat="49.94265" lon="1.89216">
        <ele>97.3</ele>
        <time>2013-07-07T07:48:31Z</time>
      </trkpt>
      <trkpt lat="49.9425" lon="1.89217">
        <ele>100.5</ele>
        <time>2013-07-07T07:48:46Z</time>
      </trkpt>
      <trkpt lat="49.94239" lon="1.89214">
        <ele>98.2</ele>
        <time>2013-07-07T07:48:56Z</time>
      </trkpt>
      <trkpt lat="49.94226" lon="1.89201">
        <ele>100</ele>
        <time>2013-07-07T07:49:08Z</time>
      </trkpt>
      <trkpt lat="49.94213" lon="1.89193">
        <ele>100.2</ele>
        <time>2013-07-07T07:49:20Z</time>
      </trkpt>
      <trkpt lat="49.94201" lon="1.89181">
        <ele>103.4</ele>
        <time>2013-07-07T07:49:33Z</time>
      </trkpt>
      <trkpt lat="49.94191" lon="1.89166">
        <ele>105.1</ele>
        <time>2013-07-07T07:49:46Z</time>
      </trkpt>
      <trkpt lat="49.94177" lon="1.8916">
        <ele>105.6</ele>
        <time>2013-07-07T07:49:53Z</time>
      </trkpt>
      <trkpt lat="49.94164" lon="1.89156">
        <ele>106.6</ele>
        <time>2013-07-07T07:50:06Z</time>
      </trkpt>
      <trkpt lat="49.9415" lon="1.89154">
        <ele>107.4</ele>
        <time>2013-07-07T07:50:17Z</time>
      </trkpt>
      <trkpt lat="49.94135" lon="1.8915">
        <ele>108.3</ele>
        <time>2013-07-07T07:50:29Z</time>
      </trkpt>
      <trkpt lat="49.94121" lon="1.89144">
        <ele>109.3</ele>
        <time>2013-07-07T07:50:42Z</time>
      </trkpt>
      <trkpt lat="49.94107" lon="1.8914">
        <ele>110</ele>
        <time>2013-07-07T07:50:52Z</time>
      </trkpt>
      <trkpt lat="49.94095" lon="1.89129">
        <ele>111.6</ele>
        <time>2013-07-07T07:51:04Z</time>
      </trkpt>
      <trkpt lat="49.94082" lon="1.8912">
        <ele>108.2</ele>
        <time>2013-07-07T07:51:15Z</time>
      </trkpt>
      <trkpt lat="49.9407" lon="1.89109">
        <ele>109.3</ele>
        <time>2013-07-07T07:51:25Z</time>
      </trkpt>
      <trkpt lat="49.94058" lon="1.891">
        <ele>110.7</ele>
        <time>2013-07-07T07:51:37Z</time>
      </trkpt>
      <trkpt lat="49.94047" lon="1.89086">
        <ele>111.8</ele>
        <time>2013-07-07T07:51:47Z</time>
      </trkpt>
      <trkpt lat="49.94038" lon="1.89069">
        <ele>113.1</ele>
        <time>2013-07-07T07:51:59Z</time>
      </trkpt>
      <trkpt lat="49.94031" lon="1.89049">
        <ele>113.9</ele>
        <time>2013-07-07T07:52:08Z</time>
      </trkpt>
      <trkpt lat="49.94023" lon="1.89029">
        <ele>114.8</ele>
        <time>2013-07-07T07:52:18Z</time>
      </trkpt>
      <trkpt lat="49.94013" lon="1.89013">
        <ele>115.8</ele>
        <time>2013-07-07T07:52:30Z</time>
      </trkpt>
      <trkpt lat="49.94001" lon="1.89">
        <ele>115</ele>
        <time>2013-07-07T07:52:43Z</time>
      </trkpt>
      <trkpt lat="49.93989" lon="1.88987">
        <ele>117.7</ele>
        <time>2013-07-07T07:52:52Z</time>
      </trkpt>
      <trkpt lat="49.93977" lon="1.88974">
        <ele>118.2</ele>
        <time>2013-07-07T07:53:00Z</time>
      </trkpt>
      <trkpt lat="49.93961" lon="1.88951">
        <ele>116.6</ele>
        <time>2013-07-07T07:53:12Z</time>
      </trkpt>
      <trkpt lat="49.93961" lon="1.88951">
        <ele>116.6</ele>
        <time>2013-07-07T07:55:26Z</time>
      </trkpt>
      <trkpt lat="49.93956" lon="1.88937">
        <ele>113.2</ele>
        <time>2013-07-07T07:55:26Z</time>
      </trkpt>
      <trkpt lat="49.93957" lon="1.88915">
        <ele>113.8</ele>
        <time>2013-07-07T07:55:36Z</time>
      </trkpt>
      <trkpt lat="49.93953" lon="1.88895">
        <ele>114.5</ele>
        <time>2013-07-07T07:55:47Z</time>
      </trkpt>
      <trkpt lat="49.93949" lon="1.88875">
        <ele>115.2</ele>
        <time>2013-07-07T07:55:59Z</time>
      </trkpt>
      <trkpt lat="49.93945" lon="1.88854">
        <ele>115.9</ele>
        <time>2013-07-07T07:56:11Z</time>
      </trkpt>
      <trkpt lat="49.93941" lon="1.88832">
        <ele>117.1</ele>
        <time>2013-07-07T07:56:20Z</time>
      </trkpt>
      <trkpt lat="49.93936" lon="1.88811">
        <ele>118.4</ele>
        <time>2013-07-07T07:56:29Z</time>
      </trkpt>
      <trkpt lat="49.9393" lon="1.88791">
        <ele>119.3</ele>
        <time>2013-07-07T07:56:39Z</time>
      </trkpt>
      <trkpt lat="49.93928" lon="1.88769">
        <ele>119.7</ele>
        <time>2013-07-07T07:56:48Z</time>
      </trkpt>
      <trkpt lat="49.93924" lon="1.88749">
        <ele>120.1</ele>
        <time>2013-07-07T07:56:56Z</time>
      </trkpt>
      <trkpt lat="49.93924" lon="1.88727">
        <ele>120.6</ele>
        <time>2013-07-07T07:57:08Z</time>
      </trkpt>
      <trkpt lat="49.93923" lon="1.88703">
        <ele>121.3</ele>
        <time>2013-07-07T07:57:21Z</time>
      </trkpt>
      <trkpt lat="49.93916" lon="1.88684">
        <ele>121.6</ele>
        <time>2013-07-07T07:57:29Z</time>
      </trkpt>
      <trkpt lat="49.93914" lon="1.88663">
        <ele>122.7</ele>
        <time>2013-07-07T07:57:39Z</time>
      </trkpt>
      <trkpt lat="49.93911" lon="1.88642">
        <ele>126.1</ele>
        <time>2013-07-07T07:57:49Z</time>
      </trkpt>
      <trkpt lat="49.93908" lon="1.88621">
        <ele>127.2</ele>
        <time>2013-07-07T07:58:01Z</time>
      </trkpt>
      <trkpt lat="49.93903" lon="1.886">
        <ele>127.6</ele>
        <time>2013-07-07T07:58:10Z</time>
      </trkpt>
      <trkpt lat="49.93901" lon="1.88579">
        <ele>126.5</ele>
        <time>2013-07-07T07:58:20Z</time>
      </trkpt>
      <trkpt lat="49.93897" lon="1.88559">
        <ele>127.6</ele>
        <time>2013-07-07T07:58:29Z</time>
      </trkpt>
      <trkpt lat="49.93892" lon="1.88538">
        <ele>125.4</ele>
        <time>2013-07-07T07:58:38Z</time>
      </trkpt>
      <trkpt lat="49.9389" lon="1.88516">
        <ele>127.3</ele>
        <time>2013-07-07T07:58:49Z</time>
      </trkpt>
      <trkpt lat="49.93887" lon="1.88495">
        <ele>129.3</ele>
        <time>2013-07-07T07:59:00Z</time>
      </trkpt>
      <trkpt lat="49.93885" lon="1.88473">
        <ele>127.9</ele>
        <time>2013-07-07T07:59:11Z</time>
      </trkpt>
      <trkpt lat="49.93879" lon="1.88452">
        <ele>124.5</ele>
        <time>2013-07-07T07:59:20Z</time>
      </trkpt>
      <trkpt lat="49.93878" lon="1.88431">
        <ele>120.8</ele>
        <time>2013-07-07T07:59:29Z</time>
      </trkpt>
      <trkpt lat="49.93874" lon="1.88411">
        <ele>118</ele>
        <time>2013-07-07T07:59:36Z</time>
      </trkpt>
      <trkpt lat="49.93869" lon="1.8839">
        <ele>119.9</ele>
        <time>2013-07-07T07:59:44Z</time>
      </trkpt>
      <trkpt lat="49.93869" lon="1.88369">
        <ele>124</ele>
        <time>2013-07-07T07:59:59Z</time>
      </trkpt>
      <trkpt lat="49.93864" lon="1.88349">
        <ele>127.3</ele>
        <time>2013-07-07T08:00:09Z</time>
      </trkpt>
      <trkpt lat="49.93861" lon="1.88327">
        <ele>128.6</ele>
        <time>2013-07-07T08:00:19Z</time>
      </trkpt>
      <trkpt lat="49.9386" lon="1.88306">
        <ele>129</ele>
        <time>2013-07-07T08:00:30Z</time>
      </trkpt>
      <trkpt lat="49.93855" lon="1.88285">
        <ele>130.9</ele>
        <time>2013-07-07T08:00:41Z</time>
      </trkpt>
      <trkpt lat="49.93852" lon="1.88264">
        <ele>130.5</ele>
        <time>2013-07-07T08:00:51Z</time>
      </trkpt>
      <trkpt lat="49.9385" lon="1.88242">
        <ele>130.2</ele>
        <time>2013-07-07T08:01:01Z</time>
      </trkpt>
      <trkpt lat="49.93846" lon="1.8822">
        <ele>127.5</ele>
        <time>2013-07-07T08:01:10Z</time>
      </trkpt>
      <trkpt lat="49.93844" lon="1.88197">
        <ele>129</ele>
        <time>2013-07-07T08:01:18Z</time>
      </trkpt>
      <trkpt lat="49.93843" lon="1.88176">
        <ele>128.6</ele>
        <time>2013-07-07T08:01:28Z</time>
      </trkpt>
      <trkpt lat="49.93838" lon="1.88156">
        <ele>128.3</ele>
        <time>2013-07-07T08:01:38Z</time>
      </trkpt>
      <trkpt lat="49.93833" lon="1.88136">
        <ele>127.9</ele>
        <time>2013-07-07T08:01:48Z</time>
      </trkpt>
      <trkpt lat="49.93829" lon="1.88115">
        <ele>127.5</ele>
        <time>2013-07-07T08:01:58Z</time>
      </trkpt>
      <trkpt lat="49.93827" lon="1.88093">
        <ele>127.1</ele>
        <time>2013-07-07T08:02:09Z</time>
      </trkpt>
      <trkpt lat="49.93823" lon="1.88071">
        <ele>126.7</ele>
        <time>2013-07-07T08:02:19Z</time>
      </trkpt>
      <trkpt lat="49.93821" lon="1.88049">
        <ele>126.3</ele>
        <time>2013-07-07T08:02:31Z</time>
      </trkpt>
      <trkpt lat="49.93816" lon="1.88028">
        <ele>126.4</ele>
        <time>2013-07-07T08:02:40Z</time>
      </trkpt>
      <trkpt lat="49.93811" lon="1.88007">
        <ele>129.2</ele>
        <time>2013-07-07T08:02:48Z</time>
      </trkpt>
      <trkpt lat="49.93811" lon="1.87985">
        <ele>126.5</ele>
        <time>2013-07-07T08:02:58Z</time>
      </trkpt>
      <trkpt lat="49.93809" lon="1.87964">
        <ele>123.9</ele>
        <time>2013-07-07T08:03:08Z</time>
      </trkpt>
      <trkpt lat="49.93802" lon="1.87945">
        <ele>122.8</ele>
        <time>2013-07-07T08:03:17Z</time>
      </trkpt>
      <trkpt lat="49.93798" lon="1.87925">
        <ele>122</ele>
        <time>2013-07-07T08:03:26Z</time>
      </trkpt>
      <trkpt lat="49.93796" lon="1.87904">
        <ele>122</ele>
        <time>2013-07-07T08:03:37Z</time>
      </trkpt>
      <trkpt lat="49.93794" lon="1.87881">
        <ele>120.6</ele>
        <time>2013-07-07T08:03:51Z</time>
      </trkpt>
      <trkpt lat="49.93789" lon="1.87861">
        <ele>121.6</ele>
        <time>2013-07-07T08:04:02Z</time>
      </trkpt>
      <trkpt lat="49.93786" lon="1.87854">
        <ele>122.5</ele>
        <time>2013-07-07T08:04:16Z</time>
      </trkpt>
      <trkpt lat="49.93799" lon="1.87847">
        <ele>123.3</ele>
        <time>2013-07-07T08:04:29Z</time>
      </trkpt>
      <trkpt lat="49.93812" lon="1.87836">
        <ele>124.2</ele>
        <time>2013-07-07T08:04:43Z</time>
      </trkpt>
      <trkpt lat="49.93825" lon="1.87827">
        <ele>124.7</ele>
        <time>2013-07-07T08:04:52Z</time>
      </trkpt>
      <trkpt lat="49.93838" lon="1.87818">
        <ele>128.8</ele>
        <time>2013-07-07T08:05:02Z</time>
      </trkpt>
      <trkpt lat="49.9385" lon="1.87804">
        <ele>127.5</ele>
        <time>2013-07-07T08:05:10Z</time>
      </trkpt>
      <trkpt lat="49.93863" lon="1.87794">
        <ele>132</ele>
        <time>2013-07-07T08:05:21Z</time>
      </trkpt>
      <trkpt lat="49.93873" lon="1.8778">
        <ele>132</ele>
        <time>2013-07-07T08:05:31Z</time>
      </trkpt>
      <trkpt lat="49.93885" lon="1.87767">
        <ele>132</ele>
        <time>2013-07-07T08:05:40Z</time>
      </trkpt>
      <trkpt lat="49.93895" lon="1.87753">
        <ele>132</ele>
        <time>2013-07-07T08:05:52Z</time>
      </trkpt>
      <trkpt lat="49.93904" lon="1.87736">
        <ele>128.9</ele>
        <time>2013-07-07T08:06:05Z</time>
      </trkpt>
      <trkpt lat="49.93916" lon="1.87723">
        <ele>127.7</ele>
        <time>2013-07-07T08:06:13Z</time>
      </trkpt>
      <trkpt lat="49.93925" lon="1.87707">
        <ele>127.2</ele>
        <time>2013-07-07T08:06:22Z</time>
      </trkpt>
      <trkpt lat="49.93932" lon="1.8769">
        <ele>126.6</ele>
        <time>2013-07-07T08:06:33Z</time>
      </trkpt>
      <trkpt lat="49.93944" lon="1.87676">
        <ele>126.2</ele>
        <time>2013-07-07T08:06:41Z</time>
      </trkpt>
      <trkpt lat="49.93948" lon="1.87655">
        <ele>125.7</ele>
        <time>2013-07-07T08:06:50Z</time>
      </trkpt>
      <trkpt lat="49.93955" lon="1.87635">
        <ele>125.2</ele>
        <time>2013-07-07T08:06:59Z</time>
      </trkpt>
      <trkpt lat="49.93962" lon="1.87616">
        <ele>125.5</ele>
        <time>2013-07-07T08:07:10Z</time>
      </trkpt>
      <trkpt lat="49.93972" lon="1.87601">
        <ele>126.2</ele>
        <time>2013-07-07T08:07:20Z</time>
      </trkpt>
      <trkpt lat="49.93981" lon="1.87584">
        <ele>126.9</ele>
        <time>2013-07-07T08:07:31Z</time>
      </trkpt>
      <trkpt lat="49.93993" lon="1.87572">
        <ele>127.5</ele>
        <time>2013-07-07T08:07:39Z</time>
      </trkpt>
      <trkpt lat="49.94006" lon="1.87561">
        <ele>127.6</ele>
        <time>2013-07-07T08:07:49Z</time>
      </trkpt>
      <trkpt lat="49.94018" lon="1.87549">
        <ele>125.7</ele>
        <time>2013-07-07T08:08:00Z</time>
      </trkpt>
      <trkpt lat="49.9403" lon="1.87537">
        <ele>123.6</ele>
        <time>2013-07-07T08:08:10Z</time>
      </trkpt>
      <trkpt lat="49.94043" lon="1.87527">
        <ele>120.2</ele>
        <time>2013-07-07T08:08:24Z</time>
      </trkpt>
      <trkpt lat="49.94057" lon="1.87519">
        <ele>118</ele>
        <time>2013-07-07T08:08:34Z</time>
      </trkpt>
      <trkpt lat="49.9407" lon="1.87511">
        <ele>116.1</ele>
        <time>2013-07-07T08:08:43Z</time>
      </trkpt>
      <trkpt lat="49.94081" lon="1.87498">
        <ele>119.9</ele>
        <time>2013-07-07T08:08:57Z</time>
      </trkpt>
      <trkpt lat="49.94092" lon="1.87484">
        <ele>115.6</ele>
        <time>2013-07-07T08:09:06Z</time>
      </trkpt>
      <trkpt lat="49.94106" lon="1.87483">
        <ele>114.2</ele>
        <time>2013-07-07T08:09:14Z</time>
      </trkpt>
      <trkpt lat="49.94119" lon="1.87491">
        <ele>113.5</ele>
        <time>2013-07-07T08:09:24Z</time>
      </trkpt>
      <trkpt lat="49.94127" lon="1.87508">
        <ele>115</ele>
        <time>2013-07-07T08:09:35Z</time>
      </trkpt>
      <trkpt lat="49.94139" lon="1.87523">
        <ele>116.5</ele>
        <time>2013-07-07T08:09:46Z</time>
      </trkpt>
      <trkpt lat="49.9415" lon="1.87535">
        <ele>115.9</ele>
        <time>2013-07-07T08:09:56Z</time>
      </trkpt>
      <trkpt lat="49.94161" lon="1.87551">
        <ele>113.8</ele>
        <time>2013-07-07T08:10:07Z</time>
      </trkpt>
      <trkpt lat="49.94172" lon="1.87564">
        <ele>112</ele>
        <time>2013-07-07T08:10:17Z</time>
      </trkpt>
      <trkpt lat="49.94181" lon="1.87582">
        <ele>114.3</ele>
        <time>2013-07-07T08:10:26Z</time>
      </trkpt>
      <trkpt lat="49.94192" lon="1.87594">
        <ele>116.4</ele>
        <time>2013-07-07T08:10:39Z</time>
      </trkpt>
      <trkpt lat="49.94206" lon="1.87601">
        <ele>117.9</ele>
        <time>2013-07-07T08:10:49Z</time>
      </trkpt>
      <trkpt lat="49.94221" lon="1.87605">
        <ele>118.9</ele>
        <time>2013-07-07T08:10:56Z</time>
      </trkpt>
      <trkpt lat="49.94235" lon="1.87606">
        <ele>116.4</ele>
        <time>2013-07-07T08:11:04Z</time>
      </trkpt>
      <trkpt lat="49.94247" lon="1.87617">
        <ele>114</ele>
        <time>2013-07-07T08:11:20Z</time>
      </trkpt>
      <trkpt lat="49.9426" lon="1.87622">
        <ele>115.1</ele>
        <time>2013-07-07T08:11:28Z</time>
      </trkpt>
      <trkpt lat="49.94274" lon="1.87629">
        <ele>116.3</ele>
        <time>2013-07-07T08:11:36Z</time>
      </trkpt>
      <trkpt lat="49.94286" lon="1.87642">
        <ele>117.7</ele>
        <time>2013-07-07T08:11:46Z</time>
      </trkpt>
      <trkpt lat="49.94299" lon="1.87649">
        <ele>113.3</ele>
        <time>2013-07-07T08:11:56Z</time>
      </trkpt>
      <trkpt lat="49.94311" lon="1.87634">
        <ele>114.7</ele>
        <time>2013-07-07T08:12:09Z</time>
      </trkpt>
      <trkpt lat="49.94321" lon="1.87616">
        <ele>115.6</ele>
        <time>2013-07-07T08:12:17Z</time>
      </trkpt>
      <trkpt lat="49.94334" lon="1.87605">
        <ele>114.7</ele>
        <time>2013-07-07T08:12:24Z</time>
      </trkpt>
      <trkpt lat="49.94344" lon="1.87591">
        <ele>110.3</ele>
        <time>2013-07-07T08:12:34Z</time>
      </trkpt>
      <trkpt lat="49.94351" lon="1.87583">
        <ele>109</ele>
        <time>2013-07-07T08:12:39Z</time>
      </trkpt>
      <trkpt lat="49.94354" lon="1.87562">
        <ele>110.7</ele>
        <time>2013-07-07T08:12:53Z</time>
      </trkpt>
      <trkpt lat="49.94354" lon="1.87541">
        <ele>110.2</ele>
        <time>2013-07-07T08:13:06Z</time>
      </trkpt>
      <trkpt lat="49.94355" lon="1.87519">
        <ele>109.7</ele>
        <time>2013-07-07T08:13:14Z</time>
      </trkpt>
      <trkpt lat="49.94355" lon="1.87498">
        <ele>109.2</ele>
        <time>2013-07-07T08:13:22Z</time>
      </trkpt>
      <trkpt lat="49.94353" lon="1.87476">
        <ele>108.6</ele>
        <time>2013-07-07T08:13:31Z</time>
      </trkpt>
      <trkpt lat="49.94352" lon="1.87452">
        <ele>107.7</ele>
        <time>2013-07-07T08:13:44Z</time>
      </trkpt>
      <trkpt lat="49.94353" lon="1.87431">
        <ele>107</ele>
        <time>2013-07-07T08:13:56Z</time>
      </trkpt>
      <trkpt lat="49.9435" lon="1.87409">
        <ele>106.4</ele>
        <time>2013-07-07T08:14:08Z</time>
      </trkpt>
      <trkpt lat="49.94347" lon="1.87389">
        <ele>106</ele>
        <time>2013-07-07T08:14:18Z</time>
      </trkpt>
      <trkpt lat="49.94343" lon="1.87368">
        <ele>105.5</ele>
        <time>2013-07-07T08:14:28Z</time>
      </trkpt>
      <trkpt lat="49.9434" lon="1.87345">
        <ele>105.1</ele>
        <time>2013-07-07T08:14:37Z</time>
      </trkpt>
      <trkpt lat="49.94337" lon="1.87324">
        <ele>104.7</ele>
        <time>2013-07-07T08:14:46Z</time>
      </trkpt>
      <trkpt lat="49.94335" lon="1.87303">
        <ele>104.3</ele>
        <time>2013-07-07T08:14:55Z</time>
      </trkpt>
      <trkpt lat="49.94332" lon="1.87282">
        <ele>104.3</ele>
        <time>2013-07-07T08:15:05Z</time>
      </trkpt>
      <trkpt lat="49.94328" lon="1.87261">
        <ele>105.3</ele>
        <time>2013-07-07T08:15:16Z</time>
      </trkpt>
      <trkpt lat="49.94327" lon="1.87238">
        <ele>106.2</ele>
        <time>2013-07-07T08:15:27Z</time>
      </trkpt>
      <trkpt lat="49.94325" lon="1.87216">
        <ele>107.3</ele>
        <time>2013-07-07T08:15:38Z</time>
      </trkpt>
      <trkpt lat="49.9432" lon="1.87196">
        <ele>109</ele>
        <time>2013-07-07T08:15:50Z</time>
      </trkpt>
      <trkpt lat="49.94319" lon="1.87174">
        <ele>109.7</ele>
        <time>2013-07-07T08:16:02Z</time>
      </trkpt>
      <trkpt lat="49.94318" lon="1.87153">
        <ele>109.1</ele>
        <time>2013-07-07T08:16:11Z</time>
      </trkpt>
      <trkpt lat="49.94313" lon="1.87133">
        <ele>108.5</ele>
        <time>2013-07-07T08:16:22Z</time>
      </trkpt>
      <trkpt lat="49.94309" lon="1.87111">
        <ele>107.7</ele>
        <time>2013-07-07T08:16:34Z</time>
      </trkpt>
      <trkpt lat="49.94303" lon="1.87092">
        <ele>107.2</ele>
        <time>2013-07-07T08:16:42Z</time>
      </trkpt>
      <trkpt lat="49.94297" lon="1.87071">
        <ele>107.4</ele>
        <time>2013-07-07T08:16:52Z</time>
      </trkpt>
      <trkpt lat="49.94299" lon="1.87049">
        <ele>108.1</ele>
        <time>2013-07-07T08:17:02Z</time>
      </trkpt>
      <trkpt lat="49.9429" lon="1.87032">
        <ele>108.7</ele>
        <time>2013-07-07T08:17:12Z</time>
      </trkpt>
      <trkpt lat="49.9428" lon="1.87015">
        <ele>109.3</ele>
        <time>2013-07-07T08:17:21Z</time>
      </trkpt>
      <trkpt lat="49.94272" lon="1.86999">
        <ele>110.1</ele>
        <time>2013-07-07T08:17:33Z</time>
      </trkpt>
      <trkpt lat="49.94265" lon="1.86979">
        <ele>110.9</ele>
        <time>2013-07-07T08:17:44Z</time>
      </trkpt>
      <trkpt lat="49.94256" lon="1.86962">
        <ele>111.5</ele>
        <time>2013-07-07T08:17:52Z</time>
      </trkpt>
      <trkpt lat="49.94248" lon="1.86945">
        <ele>112.2</ele>
        <time>2013-07-07T08:18:01Z</time>
      </trkpt>
      <trkpt lat="49.94241" lon="1.86926">
        <ele>113.2</ele>
        <time>2013-07-07T08:18:14Z</time>
      </trkpt>
      <trkpt lat="49.9423" lon="1.86911">
        <ele>113.8</ele>
        <time>2013-07-07T08:18:22Z</time>
      </trkpt>
      <trkpt lat="49.9422" lon="1.86892">
        <ele>112.5</ele>
        <time>2013-07-07T08:18:32Z</time>
      </trkpt>
      <trkpt lat="49.94212" lon="1.86873">
        <ele>109.6</ele>
        <time>2013-07-07T08:18:44Z</time>
      </trkpt>
      <trkpt lat="49.942" lon="1.86864">
        <ele>113.5</ele>
        <time>2013-07-07T08:18:54Z</time>
      </trkpt>
      <trkpt lat="49.94192" lon="1.86845">
        <ele>115.7</ele>
        <time>2013-07-07T08:19:04Z</time>
      </trkpt>
      <trkpt lat="49.94181" lon="1.8683">
        <ele>117.6</ele>
        <time>2013-07-07T08:19:12Z</time>
      </trkpt>
      <trkpt lat="49.9417" lon="1.86815">
        <ele>118</ele>
        <time>2013-07-07T08:19:21Z</time>
      </trkpt>
      <trkpt lat="49.94161" lon="1.86798">
        <ele>118</ele>
        <time>2013-07-07T08:19:30Z</time>
      </trkpt>
      <trkpt lat="49.94149" lon="1.86787">
        <ele>118</ele>
        <time>2013-07-07T08:19:41Z</time>
      </trkpt>
      <trkpt lat="49.94141" lon="1.86769">
        <ele>115.2</ele>
        <time>2013-07-07T08:19:53Z</time>
      </trkpt>
      <trkpt lat="49.94133" lon="1.8675">
        <ele>112.3</ele>
        <time>2013-07-07T08:20:05Z</time>
      </trkpt>
      <trkpt lat="49.94137" lon="1.86727">
        <ele>112.5</ele>
        <time>2013-07-07T08:20:13Z</time>
      </trkpt>
      <trkpt lat="49.9413" lon="1.86708">
        <ele>114.8</ele>
        <time>2013-07-07T08:20:22Z</time>
      </trkpt>
      <trkpt lat="49.94124" lon="1.86687">
        <ele>116.1</ele>
        <time>2013-07-07T08:20:32Z</time>
      </trkpt>
      <trkpt lat="49.94119" lon="1.86666">
        <ele>117.7</ele>
        <time>2013-07-07T08:20:41Z</time>
      </trkpt>
      <trkpt lat="49.94114" lon="1.86646">
        <ele>122.6</ele>
        <time>2013-07-07T08:20:54Z</time>
      </trkpt>
      <trkpt lat="49.94103" lon="1.86629">
        <ele>125.9</ele>
        <time>2013-07-07T08:21:03Z</time>
      </trkpt>
      <trkpt lat="49.9409" lon="1.86618">
        <ele>126.8</ele>
        <time>2013-07-07T08:21:08Z</time>
      </trkpt>
      <trkpt lat="49.94078" lon="1.86608">
        <ele>125.9</ele>
        <time>2013-07-07T08:21:18Z</time>
      </trkpt>
      <trkpt lat="49.94065" lon="1.86599">
        <ele>124.7</ele>
        <time>2013-07-07T08:21:32Z</time>
      </trkpt>
      <trkpt lat="49.94056" lon="1.86582">
        <ele>123.5</ele>
        <time>2013-07-07T08:21:42Z</time>
      </trkpt>
      <trkpt lat="49.94052" lon="1.8656">
        <ele>120.7</ele>
        <time>2013-07-07T08:21:54Z</time>
      </trkpt>
      <trkpt lat="49.94041" lon="1.86543">
        <ele>121.1</ele>
        <time>2013-07-07T08:22:03Z</time>
      </trkpt>
      <trkpt lat="49.94029" lon="1.86532">
        <ele>123</ele>
        <time>2013-07-07T08:22:13Z</time>
      </trkpt>
      <trkpt lat="49.94019" lon="1.86517">
        <ele>124.9</ele>
        <time>2013-07-07T08:22:23Z</time>
      </trkpt>
      <trkpt lat="49.94004" lon="1.86513">
        <ele>125.6</ele>
        <time>2013-07-07T08:22:34Z</time>
      </trkpt>
      <trkpt lat="49.94001" lon="1.86492">
        <ele>124.6</ele>
        <time>2013-07-07T08:22:45Z</time>
      </trkpt>
      <trkpt lat="49.9399" lon="1.86477">
        <ele>123.6</ele>
        <time>2013-07-07T08:22:56Z</time>
      </trkpt>
      <trkpt lat="49.93981" lon="1.86461">
        <ele>122.9</ele>
        <time>2013-07-07T08:23:04Z</time>
      </trkpt>
      <trkpt lat="49.93974" lon="1.86442">
        <ele>121.9</ele>
        <time>2013-07-07T08:23:15Z</time>
      </trkpt>
      <trkpt lat="49.93976" lon="1.86421">
        <ele>121.4</ele>
        <time>2013-07-07T08:23:27Z</time>
      </trkpt>
      <trkpt lat="49.93973" lon="1.864">
        <ele>123.3</ele>
        <time>2013-07-07T08:23:37Z</time>
      </trkpt>
      <trkpt lat="49.9397" lon="1.86378">
        <ele>123.8</ele>
        <time>2013-07-07T08:23:47Z</time>
      </trkpt>
      <trkpt lat="49.93964" lon="1.86358">
        <ele>123.4</ele>
        <time>2013-07-07T08:23:57Z</time>
      </trkpt>
      <trkpt lat="49.93968" lon="1.86337">
        <ele>123.1</ele>
        <time>2013-07-07T08:24:05Z</time>
      </trkpt>
      <trkpt lat="49.93972" lon="1.86317">
        <ele>122.7</ele>
        <time>2013-07-07T08:24:17Z</time>
      </trkpt>
      <trkpt lat="49.93972" lon="1.86295">
        <ele>122.3</ele>
        <time>2013-07-07T08:24:28Z</time>
      </trkpt>
      <trkpt lat="49.93975" lon="1.86274">
        <ele>121.8</ele>
        <time>2013-07-07T08:24:40Z</time>
      </trkpt>
      <trkpt lat="49.93973" lon="1.86252">
        <ele>121.4</ele>
        <time>2013-07-07T08:24:51Z</time>
      </trkpt>
      <trkpt lat="49.93975" lon="1.86231">
        <ele>121.1</ele>
        <time>2013-07-07T08:24:59Z</time>
      </trkpt>
      <trkpt lat="49.93972" lon="1.8621">
        <ele>119.5</ele>
        <time>2013-07-07T08:25:07Z</time>
      </trkpt>
      <trkpt lat="49.93961" lon="1.86195">
        <ele>115.9</ele>
        <time>2013-07-07T08:25:20Z</time>
      </trkpt>
      <trkpt lat="49.93963" lon="1.86172">
        <ele>115</ele>
        <time>2013-07-07T08:25:29Z</time>
      </trkpt>
      <trkpt lat="49.93966" lon="1.8615">
        <ele>114.3</ele>
        <time>2013-07-07T08:25:39Z</time>
      </trkpt>
      <trkpt lat="49.93966" lon="1.86128">
        <ele>111.5</ele>
        <time>2013-07-07T08:25:51Z</time>
      </trkpt>
      <trkpt lat="49.93955" lon="1.8614">
        <ele>116.5</ele>
        <time>2013-07-07T08:26:07Z</time>
      </trkpt>
      <trkpt lat="49.93952" lon="1.86141">
        <ele>114.4</ele>
        <time>2013-07-07T08:26:18Z</time>
      </trkpt>
      <trkpt lat="49.93963" lon="1.86116">
        <ele>116.2</ele>
        <time>2013-07-07T08:26:27Z</time>
      </trkpt>
      <trkpt lat="49.93963" lon="1.86116">
        <ele>116.2</ele>
        <time>2013-07-07T08:28:43Z</time>
      </trkpt>
      <trkpt lat="49.93959" lon="1.86099">
        <ele>119.3</ele>
        <time>2013-07-07T08:28:44Z</time>
      </trkpt>
      <trkpt lat="49.93958" lon="1.86077">
        <ele>122.2</ele>
        <time>2013-07-07T08:28:57Z</time>
      </trkpt>
      <trkpt lat="49.93953" lon="1.86055">
        <ele>118</ele>
        <time>2013-07-07T08:29:04Z</time>
      </trkpt>
      <trkpt lat="49.9395" lon="1.86032">
        <ele>122.6</ele>
        <time>2013-07-07T08:29:13Z</time>
      </trkpt>
      <trkpt lat="49.93946" lon="1.8601">
        <ele>120.2</ele>
        <time>2013-07-07T08:29:27Z</time>
      </trkpt>
      <trkpt lat="49.93941" lon="1.85988">
        <ele>119.5</ele>
        <time>2013-07-07T08:29:34Z</time>
      </trkpt>
      <trkpt lat="49.93934" lon="1.85969">
        <ele>117.8</ele>
        <time>2013-07-07T08:29:51Z</time>
      </trkpt>
      <trkpt lat="49.93929" lon="1.85947">
        <ele>116.7</ele>
        <time>2013-07-07T08:30:02Z</time>
      </trkpt>
      <trkpt lat="49.9392" lon="1.85927">
        <ele>118.5</ele>
        <time>2013-07-07T08:30:12Z</time>
      </trkpt>
      <trkpt lat="49.93919" lon="1.85905">
        <ele>118.4</ele>
        <time>2013-07-07T08:30:20Z</time>
      </trkpt>
      <trkpt lat="49.93912" lon="1.85886">
        <ele>116.4</ele>
        <time>2013-07-07T08:30:32Z</time>
      </trkpt>
      <trkpt lat="49.93903" lon="1.85867">
        <ele>115.6</ele>
        <time>2013-07-07T08:30:42Z</time>
      </trkpt>
      <trkpt lat="49.93896" lon="1.85848">
        <ele>114.9</ele>
        <time>2013-07-07T08:30:50Z</time>
      </trkpt>
      <trkpt lat="49.93888" lon="1.85829">
        <ele>114.4</ele>
        <time>2013-07-07T08:31:04Z</time>
      </trkpt>
      <trkpt lat="49.93878" lon="1.85814">
        <ele>116</ele>
        <time>2013-07-07T08:31:15Z</time>
      </trkpt>
      <trkpt lat="49.9387" lon="1.85794">
        <ele>118</ele>
        <time>2013-07-07T08:31:29Z</time>
      </trkpt>
      <trkpt lat="49.93862" lon="1.85777">
        <ele>117.5</ele>
        <time>2013-07-07T08:31:38Z</time>
      </trkpt>
      <trkpt lat="49.93851" lon="1.85762">
        <ele>116.9</ele>
        <time>2013-07-07T08:31:47Z</time>
      </trkpt>
      <trkpt lat="49.93842" lon="1.85743">
        <ele>116.6</ele>
        <time>2013-07-07T08:31:53Z</time>
      </trkpt>
      <trkpt lat="49.93834" lon="1.85724">
        <ele>115.9</ele>
        <time>2013-07-07T08:32:04Z</time>
      </trkpt>
      <trkpt lat="49.93826" lon="1.85707">
        <ele>115.2</ele>
        <time>2013-07-07T08:32:15Z</time>
      </trkpt>
      <trkpt lat="49.93817" lon="1.8569">
        <ele>113.8</ele>
        <time>2013-07-07T08:32:26Z</time>
      </trkpt>
      <trkpt lat="49.93806" lon="1.85677">
        <ele>112</ele>
        <time>2013-07-07T08:32:36Z</time>
      </trkpt>
      <trkpt lat="49.93799" lon="1.85659">
        <ele>110.9</ele>
        <time>2013-07-07T08:32:45Z</time>
      </trkpt>
      <trkpt lat="49.93792" lon="1.8564">
        <ele>110.3</ele>
        <time>2013-07-07T08:32:55Z</time>
      </trkpt>
      <trkpt lat="49.93785" lon="1.85621">
        <ele>109.8</ele>
        <time>2013-07-07T08:33:07Z</time>
      </trkpt>
      <trkpt lat="49.93772" lon="1.8561">
        <ele>111.7</ele>
        <time>2013-07-07T08:33:17Z</time>
      </trkpt>
      <trkpt lat="49.9376" lon="1.85596">
        <ele>114.9</ele>
        <time>2013-07-07T08:33:27Z</time>
      </trkpt>
      <trkpt lat="49.93752" lon="1.85594">
        <ele>114.2</ele>
        <time>2013-07-07T08:33:32Z</time>
      </trkpt>
      <trkpt lat="49.93747" lon="1.85573">
        <ele>112.7</ele>
        <time>2013-07-07T08:33:44Z</time>
      </trkpt>
      <trkpt lat="49.93737" lon="1.8556">
        <ele>112.6</ele>
        <time>2013-07-07T08:33:55Z</time>
      </trkpt>
      <trkpt lat="49.93723" lon="1.8555">
        <ele>113.4</ele>
        <time>2013-07-07T08:34:03Z</time>
      </trkpt>
      <trkpt lat="49.93711" lon="1.85538">
        <ele>114.4</ele>
        <time>2013-07-07T08:34:12Z</time>
      </trkpt>
      <trkpt lat="49.93701" lon="1.85522">
        <ele>114.6</ele>
        <time>2013-07-07T08:34:25Z</time>
      </trkpt>
      <trkpt lat="49.93694" lon="1.85502">
        <ele>113.8</ele>
        <time>2013-07-07T08:34:37Z</time>
      </trkpt>
      <trkpt lat="49.93685" lon="1.85486">
        <ele>113.3</ele>
        <time>2013-07-07T08:34:45Z</time>
      </trkpt>
      <trkpt lat="49.93674" lon="1.85474">
        <ele>112.7</ele>
        <time>2013-07-07T08:34:55Z</time>
      </trkpt>
      <trkpt lat="49.93661" lon="1.8546">
        <ele>112.1</ele>
        <time>2013-07-07T08:35:04Z</time>
      </trkpt>
      <trkpt lat="49.93651" lon="1.85446">
        <ele>111.6</ele>
        <time>2013-07-07T08:35:13Z</time>
      </trkpt>
      <trkpt lat="49.93642" lon="1.85428">
        <ele>112.1</ele>
        <time>2013-07-07T08:35:26Z</time>
      </trkpt>
      <trkpt lat="49.93629" lon="1.85419">
        <ele>114.9</ele>
        <time>2013-07-07T08:35:38Z</time>
      </trkpt>
      <trkpt lat="49.93617" lon="1.85409">
        <ele>116.5</ele>
        <time>2013-07-07T08:35:47Z</time>
      </trkpt>
      <trkpt lat="49.93605" lon="1.85398">
        <ele>119</ele>
        <time>2013-07-07T08:35:58Z</time>
      </trkpt>
      <trkpt lat="49.93593" lon="1.85388">
        <ele>123.2</ele>
        <time>2013-07-07T08:36:06Z</time>
      </trkpt>
      <trkpt lat="49.93587" lon="1.85368">
        <ele>121</ele>
        <time>2013-07-07T08:36:18Z</time>
      </trkpt>
      <trkpt lat="49.93597" lon="1.85352">
        <ele>119.5</ele>
        <time>2013-07-07T08:36:27Z</time>
      </trkpt>
      <trkpt lat="49.93608" lon="1.8534">
        <ele>116.4</ele>
        <time>2013-07-07T08:36:37Z</time>
      </trkpt>
      <trkpt lat="49.9362" lon="1.8533">
        <ele>113.5</ele>
        <time>2013-07-07T08:36:49Z</time>
      </trkpt>
      <trkpt lat="49.93633" lon="1.85318">
        <ele>111.5</ele>
        <time>2013-07-07T08:37:05Z</time>
      </trkpt>
      <trkpt lat="49.93647" lon="1.85316">
        <ele>113</ele>
        <time>2013-07-07T08:37:14Z</time>
      </trkpt>
      <trkpt lat="49.9366" lon="1.85317">
        <ele>113.4</ele>
        <time>2013-07-07T08:37:22Z</time>
      </trkpt>
      <trkpt lat="49.93675" lon="1.85311">
        <ele>109</ele>
        <time>2013-07-07T08:37:34Z</time>
      </trkpt>
      <trkpt lat="49.9369" lon="1.8531">
        <ele>111.7</ele>
        <time>2013-07-07T08:37:43Z</time>
      </trkpt>
      <trkpt lat="49.93703" lon="1.85315">
        <ele>113.9</ele>
        <time>2013-07-07T08:37:49Z</time>
      </trkpt>
      <trkpt lat="49.93717" lon="1.85319">
        <ele>114</ele>
        <time>2013-07-07T08:38:00Z</time>
      </trkpt>
      <trkpt lat="49.93731" lon="1.85319">
        <ele>112.8</ele>
        <time>2013-07-07T08:38:09Z</time>
      </trkpt>
      <trkpt lat="49.93746" lon="1.85321">
        <ele>112</ele>
        <time>2013-07-07T08:38:15Z</time>
      </trkpt>
      <trkpt lat="49.9376" lon="1.85325">
        <ele>111.4</ele>
        <time>2013-07-07T08:38:20Z</time>
      </trkpt>
      <trkpt lat="49.93775" lon="1.85331">
        <ele>107</ele>
        <time>2013-07-07T08:38:28Z</time>
      </trkpt>
      <trkpt lat="49.93789" lon="1.85335">
        <ele>105.3</ele>
        <time>2013-07-07T08:38:42Z</time>
      </trkpt>
      <trkpt lat="49.93803" lon="1.85342">
        <ele>102.4</ele>
        <time>2013-07-07T08:38:58Z</time>
      </trkpt>
      <trkpt lat="49.93817" lon="1.85349">
        <ele>97.7</ele>
        <time>2013-07-07T08:39:08Z</time>
      </trkpt>
      <trkpt lat="49.93831" lon="1.85351">
        <ele>90</ele>
        <time>2013-07-07T08:39:21Z</time>
      </trkpt>
      <trkpt lat="49.93843" lon="1.85363">
        <ele>91.1</ele>
        <time>2013-07-07T08:39:29Z</time>
      </trkpt>
      <trkpt lat="49.93857" lon="1.85367">
        <ele>92.7</ele>
        <time>2013-07-07T08:39:41Z</time>
      </trkpt>
      <trkpt lat="49.93871" lon="1.85374">
        <ele>95.3</ele>
        <time>2013-07-07T08:39:50Z</time>
      </trkpt>
      <trkpt lat="49.93887" lon="1.85379">
        <ele>96.5</ele>
        <time>2013-07-07T08:39:57Z</time>
      </trkpt>
      <trkpt lat="49.93901" lon="1.85383">
        <ele>94.9</ele>
        <time>2013-07-07T08:40:04Z</time>
      </trkpt>
      <trkpt lat="49.93914" lon="1.85394">
        <ele>93</ele>
        <time>2013-07-07T08:40:12Z</time>
      </trkpt>
      <trkpt lat="49.93928" lon="1.85395">
        <ele>93.5</ele>
        <time>2013-07-07T08:40:29Z</time>
      </trkpt>
      <trkpt lat="49.93943" lon="1.85399">
        <ele>94.7</ele>
        <time>2013-07-07T08:40:40Z</time>
      </trkpt>
      <trkpt lat="49.93956" lon="1.85406">
        <ele>94.2</ele>
        <time>2013-07-07T08:40:50Z</time>
      </trkpt>
      <trkpt lat="49.93969" lon="1.85412">
        <ele>93</ele>
        <time>2013-07-07T08:41:00Z</time>
      </trkpt>
      <trkpt lat="49.93983" lon="1.85413">
        <ele>92.1</ele>
        <time>2013-07-07T08:41:08Z</time>
      </trkpt>
      <trkpt lat="49.93998" lon="1.85414">
        <ele>90.7</ele>
        <time>2013-07-07T08:41:18Z</time>
      </trkpt>
      <trkpt lat="49.94028" lon="1.8543">
        <ele>92.8</ele>
        <time>2013-07-07T08:41:40Z</time>
      </trkpt>
      <trkpt lat="49.94028" lon="1.8543">
        <ele>92.8</ele>
        <time>2013-07-07T08:58:09Z</time>
      </trkpt>
      <trkpt lat="49.94045" lon="1.85443">
        <ele>97.6</ele>
        <time>2013-07-07T08:58:17Z</time>
      </trkpt>
      <trkpt lat="49.94056" lon="1.85455">
        <ele>94.9</ele>
        <time>2013-07-07T08:58:33Z</time>
      </trkpt>
      <trkpt lat="49.94068" lon="1.85468">
        <ele>98</ele>
        <time>2013-07-07T08:58:42Z</time>
      </trkpt>
      <trkpt lat="49.94081" lon="1.85475">
        <ele>85.3</ele>
        <time>2013-07-07T08:58:56Z</time>
      </trkpt>
      <trkpt lat="49.94094" lon="1.85484">
        <ele>79.8</ele>
        <time>2013-07-07T08:59:08Z</time>
      </trkpt>
      <trkpt lat="49.94104" lon="1.85498">
        <ele>76.1</ele>
        <time>2013-07-07T08:59:19Z</time>
      </trkpt>
      <trkpt lat="49.94115" lon="1.85513">
        <ele>76.5</ele>
        <time>2013-07-07T08:59:37Z</time>
      </trkpt>
      <trkpt lat="49.94125" lon="1.85527">
        <ele>76.8</ele>
        <time>2013-07-07T08:59:48Z</time>
      </trkpt>
      <trkpt lat="49.94133" lon="1.85545">
        <ele>76.3</ele>
        <time>2013-07-07T08:59:59Z</time>
      </trkpt>
      <trkpt lat="49.94145" lon="1.85561">
        <ele>80.1</ele>
        <time>2013-07-07T09:00:09Z</time>
      </trkpt>
      <trkpt lat="49.94152" lon="1.85579">
        <ele>80.6</ele>
        <time>2013-07-07T09:00:20Z</time>
      </trkpt>
      <trkpt lat="49.94162" lon="1.85593">
        <ele>81</ele>
        <time>2013-07-07T09:00:30Z</time>
      </trkpt>
      <trkpt lat="49.94173" lon="1.85608">
        <ele>78.5</ele>
        <time>2013-07-07T09:00:39Z</time>
      </trkpt>
      <trkpt lat="49.94183" lon="1.85622">
        <ele>72.1</ele>
        <time>2013-07-07T09:00:53Z</time>
      </trkpt>
      <trkpt lat="49.94194" lon="1.85635">
        <ele>70.4</ele>
        <time>2013-07-07T09:01:03Z</time>
      </trkpt>
      <trkpt lat="49.94204" lon="1.85649">
        <ele>70.5</ele>
        <time>2013-07-07T09:01:12Z</time>
      </trkpt>
      <trkpt lat="49.94213" lon="1.85667">
        <ele>71.2</ele>
        <time>2013-07-07T09:01:23Z</time>
      </trkpt>
      <trkpt lat="49.94222" lon="1.85684">
        <ele>72</ele>
        <time>2013-07-07T09:01:34Z</time>
      </trkpt>
      <trkpt lat="49.94231" lon="1.85701">
        <ele>66.2</ele>
        <time>2013-07-07T09:01:44Z</time>
      </trkpt>
      <trkpt lat="49.94239" lon="1.85719">
        <ele>66.4</ele>
        <time>2013-07-07T09:01:55Z</time>
      </trkpt>
      <trkpt lat="49.94248" lon="1.85736">
        <ele>65.6</ele>
        <time>2013-07-07T09:02:08Z</time>
      </trkpt>
      <trkpt lat="49.94258" lon="1.85752">
        <ele>64.4</ele>
        <time>2013-07-07T09:02:19Z</time>
      </trkpt>
      <trkpt lat="49.94264" lon="1.8577">
        <ele>63.1</ele>
        <time>2013-07-07T09:02:30Z</time>
      </trkpt>
      <trkpt lat="49.9427" lon="1.85791">
        <ele>60.3</ele>
        <time>2013-07-07T09:02:42Z</time>
      </trkpt>
      <trkpt lat="49.94281" lon="1.85807">
        <ele>59.7</ele>
        <time>2013-07-07T09:02:51Z</time>
      </trkpt>
      <trkpt lat="49.94292" lon="1.8582">
        <ele>58.3</ele>
        <time>2013-07-07T09:02:59Z</time>
      </trkpt>
      <trkpt lat="49.94301" lon="1.85837">
        <ele>56.2</ele>
        <time>2013-07-07T09:03:08Z</time>
      </trkpt>
      <trkpt lat="49.94311" lon="1.85853">
        <ele>53.2</ele>
        <time>2013-07-07T09:03:23Z</time>
      </trkpt>
      <trkpt lat="49.9432" lon="1.8587">
        <ele>51.5</ele>
        <time>2013-07-07T09:03:35Z</time>
      </trkpt>
      <trkpt lat="49.94331" lon="1.85886">
        <ele>50</ele>
        <time>2013-07-07T09:03:46Z</time>
      </trkpt>
      <trkpt lat="49.94342" lon="1.85901">
        <ele>50</ele>
        <time>2013-07-07T09:03:57Z</time>
      </trkpt>
      <trkpt lat="49.94353" lon="1.85913">
        <ele>49.9</ele>
        <time>2013-07-07T09:04:09Z</time>
      </trkpt>
      <trkpt lat="49.94366" lon="1.85922">
        <ele>49.5</ele>
        <time>2013-07-07T09:04:16Z</time>
      </trkpt>
      <trkpt lat="49.94375" lon="1.85938">
        <ele>48.8</ele>
        <time>2013-07-07T09:04:27Z</time>
      </trkpt>
      <trkpt lat="49.94386" lon="1.85953">
        <ele>48.1</ele>
        <time>2013-07-07T09:04:39Z</time>
      </trkpt>
      <trkpt lat="49.94397" lon="1.85968">
        <ele>47.4</ele>
        <time>2013-07-07T09:04:51Z</time>
      </trkpt>
      <trkpt lat="49.94402" lon="1.85989">
        <ele>47.9</ele>
        <time>2013-07-07T09:05:02Z</time>
      </trkpt>
      <trkpt lat="49.94413" lon="1.86003">
        <ele>49.9</ele>
        <time>2013-07-07T09:05:14Z</time>
      </trkpt>
      <trkpt lat="49.94423" lon="1.86019">
        <ele>51.5</ele>
        <time>2013-07-07T09:05:21Z</time>
      </trkpt>
      <trkpt lat="49.94434" lon="1.86035">
        <ele>50.5</ele>
        <time>2013-07-07T09:05:34Z</time>
      </trkpt>
      <trkpt lat="49.94445" lon="1.86049">
        <ele>47.1</ele>
        <time>2013-07-07T09:05:49Z</time>
      </trkpt>
      <trkpt lat="49.94457" lon="1.86063">
        <ele>45.2</ele>
        <time>2013-07-07T09:06:00Z</time>
      </trkpt>
      <trkpt lat="49.94467" lon="1.86079">
        <ele>41.3</ele>
        <time>2013-07-07T09:06:11Z</time>
      </trkpt>
      <trkpt lat="49.94477" lon="1.86095">
        <ele>40.1</ele>
        <time>2013-07-07T09:06:22Z</time>
      </trkpt>
      <trkpt lat="49.94486" lon="1.86112">
        <ele>40.5</ele>
        <time>2013-07-07T09:06:33Z</time>
      </trkpt>
      <trkpt lat="49.94494" lon="1.86131">
        <ele>40.8</ele>
        <time>2013-07-07T09:06:42Z</time>
      </trkpt>
      <trkpt lat="49.94503" lon="1.86149">
        <ele>44.3</ele>
        <time>2013-07-07T09:06:52Z</time>
      </trkpt>
      <trkpt lat="49.94515" lon="1.86164">
        <ele>47.7</ele>
        <time>2013-07-07T09:07:02Z</time>
      </trkpt>
      <trkpt lat="49.94522" lon="1.86183">
        <ele>49.8</ele>
        <time>2013-07-07T09:07:13Z</time>
      </trkpt>
      <trkpt lat="49.94533" lon="1.86198">
        <ele>49</ele>
        <time>2013-07-07T09:07:23Z</time>
      </trkpt>
      <trkpt lat="49.94539" lon="1.86219">
        <ele>47.7</ele>
        <time>2013-07-07T09:07:35Z</time>
      </trkpt>
      <trkpt lat="49.94549" lon="1.86235">
        <ele>46</ele>
        <time>2013-07-07T09:07:46Z</time>
      </trkpt>
      <trkpt lat="49.94554" lon="1.86255">
        <ele>47.7</ele>
        <time>2013-07-07T09:07:58Z</time>
      </trkpt>
      <trkpt lat="49.94559" lon="1.86275">
        <ele>49.8</ele>
        <time>2013-07-07T09:08:13Z</time>
      </trkpt>
      <trkpt lat="49.94569" lon="1.86293">
        <ele>51.2</ele>
        <time>2013-07-07T09:08:23Z</time>
      </trkpt>
      <trkpt lat="49.94569" lon="1.86315">
        <ele>52.7</ele>
        <time>2013-07-07T09:08:34Z</time>
      </trkpt>
      <trkpt lat="49.94569" lon="1.86338">
        <ele>56</ele>
        <time>2013-07-07T09:08:47Z</time>
      </trkpt>
      <trkpt lat="49.94572" lon="1.8636">
        <ele>61.6</ele>
        <time>2013-07-07T09:08:59Z</time>
      </trkpt>
      <trkpt lat="49.94568" lon="1.8638">
        <ele>61</ele>
        <time>2013-07-07T09:09:09Z</time>
      </trkpt>
      <trkpt lat="49.94565" lon="1.86402">
        <ele>64.6</ele>
        <time>2013-07-07T09:09:19Z</time>
      </trkpt>
      <trkpt lat="49.94566" lon="1.86423">
        <ele>67.8</ele>
        <time>2013-07-07T09:09:32Z</time>
      </trkpt>
      <trkpt lat="49.94569" lon="1.86443">
        <ele>70.8</ele>
        <time>2013-07-07T09:09:48Z</time>
      </trkpt>
      <trkpt lat="49.94569" lon="1.86466">
        <ele>71</ele>
        <time>2013-07-07T09:10:01Z</time>
      </trkpt>
      <trkpt lat="49.94569" lon="1.86489">
        <ele>71</ele>
        <time>2013-07-07T09:10:12Z</time>
      </trkpt>
      <trkpt lat="49.94564" lon="1.86509">
        <ele>74.3</ele>
        <time>2013-07-07T09:10:25Z</time>
      </trkpt>
      <trkpt lat="49.94559" lon="1.8653">
        <ele>74.5</ele>
        <time>2013-07-07T09:10:37Z</time>
      </trkpt>
      <trkpt lat="49.94554" lon="1.86549">
        <ele>76</ele>
        <time>2013-07-07T09:10:48Z</time>
      </trkpt>
      <trkpt lat="49.94557" lon="1.8657">
        <ele>77.6</ele>
        <time>2013-07-07T09:10:59Z</time>
      </trkpt>
      <trkpt lat="49.94558" lon="1.86593">
        <ele>81.1</ele>
        <time>2013-07-07T09:11:15Z</time>
      </trkpt>
      <trkpt lat="49.94557" lon="1.86614">
        <ele>83</ele>
        <time>2013-07-07T09:11:35Z</time>
      </trkpt>
      <trkpt lat="49.94556" lon="1.86635">
        <ele>83.6</ele>
        <time>2013-07-07T09:11:48Z</time>
      </trkpt>
      <trkpt lat="49.94555" lon="1.86657">
        <ele>86.3</ele>
        <time>2013-07-07T09:11:59Z</time>
      </trkpt>
      <trkpt lat="49.94554" lon="1.86678">
        <ele>85.2</ele>
        <time>2013-07-07T09:12:10Z</time>
      </trkpt>
      <trkpt lat="49.94551" lon="1.867">
        <ele>86.1</ele>
        <time>2013-07-07T09:12:24Z</time>
      </trkpt>
      <trkpt lat="49.94553" lon="1.86721">
        <ele>87</ele>
        <time>2013-07-07T09:12:38Z</time>
      </trkpt>
      <trkpt lat="49.94551" lon="1.86743">
        <ele>87.9</ele>
        <time>2013-07-07T09:12:53Z</time>
      </trkpt>
      <trkpt lat="49.94551" lon="1.86764">
        <ele>88.6</ele>
        <time>2013-07-07T09:13:04Z</time>
      </trkpt>
      <trkpt lat="49.9455" lon="1.86786">
        <ele>90.5</ele>
        <time>2013-07-07T09:13:16Z</time>
      </trkpt>
      <trkpt lat="49.94552" lon="1.86808">
        <ele>93</ele>
        <time>2013-07-07T09:13:26Z</time>
      </trkpt>
      <trkpt lat="49.9455" lon="1.86829">
        <ele>96.1</ele>
        <time>2013-07-07T09:13:38Z</time>
      </trkpt>
      <trkpt lat="49.94547" lon="1.86852">
        <ele>99</ele>
        <time>2013-07-07T09:13:53Z</time>
      </trkpt>
      <trkpt lat="49.94547" lon="1.86875">
        <ele>100</ele>
        <time>2013-07-07T09:14:06Z</time>
      </trkpt>
      <trkpt lat="49.94547" lon="1.86896">
        <ele>101.4</ele>
        <time>2013-07-07T09:14:17Z</time>
      </trkpt>
      <trkpt lat="49.94543" lon="1.86917">
        <ele>103</ele>
        <time>2013-07-07T09:14:29Z</time>
      </trkpt>
      <trkpt lat="49.9454" lon="1.86939">
        <ele>102.5</ele>
        <time>2013-07-07T09:14:38Z</time>
      </trkpt>
      <trkpt lat="49.94538" lon="1.86959">
        <ele>104.1</ele>
        <time>2013-07-07T09:14:51Z</time>
      </trkpt>
      <trkpt lat="49.94532" lon="1.8698">
        <ele>105.5</ele>
        <time>2013-07-07T09:15:03Z</time>
      </trkpt>
      <trkpt lat="49.94526" lon="1.87">
        <ele>109.1</ele>
        <time>2013-07-07T09:15:14Z</time>
      </trkpt>
      <trkpt lat="49.94519" lon="1.87019">
        <ele>109.1</ele>
        <time>2013-07-07T09:15:28Z</time>
      </trkpt>
      <trkpt lat="49.94514" lon="1.87053">
        <ele>110.7</ele>
        <time>2013-07-07T09:15:44Z</time>
      </trkpt>
      <trkpt lat="49.94514" lon="1.87053">
        <ele>110.7</ele>
        <time>2013-07-07T09:16:23Z</time>
      </trkpt>
      <trkpt lat="49.94513" lon="1.87067">
        <ele>113.7</ele>
        <time>2013-07-07T09:16:29Z</time>
      </trkpt>
      <trkpt lat="49.94506" lon="1.87087">
        <ele>111.8</ele>
        <time>2013-07-07T09:16:46Z</time>
      </trkpt>
      <trkpt lat="49.94505" lon="1.87109">
        <ele>111</ele>
        <time>2013-07-07T09:16:53Z</time>
      </trkpt>
      <trkpt lat="49.94493" lon="1.87121">
        <ele>109.2</ele>
        <time>2013-07-07T09:17:09Z</time>
      </trkpt>
      <trkpt lat="49.94484" lon="1.8714">
        <ele>106</ele>
        <time>2013-07-07T09:17:23Z</time>
      </trkpt>
      <trkpt lat="49.94478" lon="1.8716">
        <ele>105.5</ele>
        <time>2013-07-07T09:17:34Z</time>
      </trkpt>
      <trkpt lat="49.94482" lon="1.87181">
        <ele>108.9</ele>
        <time>2013-07-07T09:17:51Z</time>
      </trkpt>
      <trkpt lat="49.94476" lon="1.87201">
        <ele>111.8</ele>
        <time>2013-07-07T09:18:01Z</time>
      </trkpt>
      <trkpt lat="49.94471" lon="1.87224">
        <ele>115.5</ele>
        <time>2013-07-07T09:18:12Z</time>
      </trkpt>
      <trkpt lat="49.94466" lon="1.87233">
        <ele>118</ele>
        <time>2013-07-07T09:18:22Z</time>
      </trkpt>
      <trkpt lat="49.94463" lon="1.87254">
        <ele>118.8</ele>
        <time>2013-07-07T09:18:28Z</time>
      </trkpt>
      <trkpt lat="49.94464" lon="1.8727">
        <ele>119.6</ele>
        <time>2013-07-07T09:18:37Z</time>
      </trkpt>
      <trkpt lat="49.94454" lon="1.87285">
        <ele>115.8</ele>
        <time>2013-07-07T09:19:02Z</time>
      </trkpt>
      <trkpt lat="49.94453" lon="1.87306">
        <ele>117.9</ele>
        <time>2013-07-07T09:19:12Z</time>
      </trkpt>
      <trkpt lat="49.94449" lon="1.8732">
        <ele>116.5</ele>
        <time>2013-07-07T09:19:24Z</time>
      </trkpt>
      <trkpt lat="49.94435" lon="1.87321">
        <ele>115.2</ele>
        <time>2013-07-07T09:19:36Z</time>
      </trkpt>
      <trkpt lat="49.94424" lon="1.87307">
        <ele>113.2</ele>
        <time>2013-07-07T09:19:53Z</time>
      </trkpt>
      <trkpt lat="49.94416" lon="1.87304">
        <ele>119.1</ele>
        <time>2013-07-07T09:20:01Z</time>
      </trkpt>
      <trkpt lat="49.94403" lon="1.87314">
        <ele>120.6</ele>
        <time>2013-07-07T09:20:12Z</time>
      </trkpt>
      <trkpt lat="49.94389" lon="1.87317">
        <ele>121.7</ele>
        <time>2013-07-07T09:20:25Z</time>
      </trkpt>
      <trkpt lat="49.94375" lon="1.8732">
        <ele>120.7</ele>
        <time>2013-07-07T09:20:37Z</time>
      </trkpt>
      <trkpt lat="49.94366" lon="1.87316">
        <ele>119.9</ele>
        <time>2013-07-07T09:20:46Z</time>
      </trkpt>
      <trkpt lat="49.94357" lon="1.87298">
        <ele>118.2</ele>
        <time>2013-07-07T09:21:01Z</time>
      </trkpt>
      <trkpt lat="49.94342" lon="1.87297">
        <ele>117.9</ele>
        <time>2013-07-07T09:21:15Z</time>
      </trkpt>
      <trkpt lat="49.94342" lon="1.87297">
        <ele>117.9</ele>
        <time>2013-07-07T09:22:33Z</time>
      </trkpt>
      <trkpt lat="49.94339" lon="1.8731">
        <ele>119</ele>
        <time>2013-07-07T09:22:37Z</time>
      </trkpt>
      <trkpt lat="49.94342" lon="1.8733">
        <ele>122.1</ele>
        <time>2013-07-07T09:22:48Z</time>
      </trkpt>
      <trkpt lat="49.94348" lon="1.8735">
        <ele>125</ele>
        <time>2013-07-07T09:22:59Z</time>
      </trkpt>
      <trkpt lat="49.94352" lon="1.8737">
        <ele>125</ele>
        <time>2013-07-07T09:23:10Z</time>
      </trkpt>
      <trkpt lat="49.94353" lon="1.87391">
        <ele>125</ele>
        <time>2013-07-07T09:23:19Z</time>
      </trkpt>
      <trkpt lat="49.94354" lon="1.87414">
        <ele>125</ele>
        <time>2013-07-07T09:23:29Z</time>
      </trkpt>
      <trkpt lat="49.94356" lon="1.87435">
        <ele>124.7</ele>
        <time>2013-07-07T09:23:40Z</time>
      </trkpt>
      <trkpt lat="49.94358" lon="1.87457">
        <ele>123.9</ele>
        <time>2013-07-07T09:23:51Z</time>
      </trkpt>
      <trkpt lat="49.9436" lon="1.87478">
        <ele>123.3</ele>
        <time>2013-07-07T09:24:01Z</time>
      </trkpt>
      <trkpt lat="49.94364" lon="1.875">
        <ele>122.5</ele>
        <time>2013-07-07T09:24:12Z</time>
      </trkpt>
      <trkpt lat="49.94359" lon="1.87521">
        <ele>121.3</ele>
        <time>2013-07-07T09:24:23Z</time>
      </trkpt>
      <trkpt lat="49.94356" lon="1.87542">
        <ele>118.7</ele>
        <time>2013-07-07T09:24:34Z</time>
      </trkpt>
      <trkpt lat="49.9435" lon="1.87561">
        <ele>114.7</ele>
        <time>2013-07-07T09:24:45Z</time>
      </trkpt>
      <trkpt lat="49.94344" lon="1.87581">
        <ele>109.7</ele>
        <time>2013-07-07T09:24:55Z</time>
      </trkpt>
      <trkpt lat="49.94336" lon="1.87598">
        <ele>109</ele>
        <time>2013-07-07T09:25:03Z</time>
      </trkpt>
      <trkpt lat="49.94328" lon="1.87615">
        <ele>111</ele>
        <time>2013-07-07T09:25:13Z</time>
      </trkpt>
      <trkpt lat="49.94318" lon="1.87632">
        <ele>108.7</ele>
        <time>2013-07-07T09:25:26Z</time>
      </trkpt>
      <trkpt lat="49.94306" lon="1.87639">
        <ele>110.5</ele>
        <time>2013-07-07T09:25:36Z</time>
      </trkpt>
      <trkpt lat="49.94293" lon="1.87648">
        <ele>108.7</ele>
        <time>2013-07-07T09:25:43Z</time>
      </trkpt>
      <trkpt lat="49.94294" lon="1.87672">
        <ele>106.3</ele>
        <time>2013-07-07T09:25:54Z</time>
      </trkpt>
      <trkpt lat="49.943" lon="1.87691">
        <ele>104.2</ele>
        <time>2013-07-07T09:26:07Z</time>
      </trkpt>
      <trkpt lat="49.94308" lon="1.87708">
        <ele>103.2</ele>
        <time>2013-07-07T09:26:16Z</time>
      </trkpt>
      <trkpt lat="49.94317" lon="1.87726">
        <ele>101.7</ele>
        <time>2013-07-07T09:26:25Z</time>
      </trkpt>
      <trkpt lat="49.94324" lon="1.87744">
        <ele>101.8</ele>
        <time>2013-07-07T09:26:36Z</time>
      </trkpt>
      <trkpt lat="49.9433" lon="1.87765">
        <ele>103.9</ele>
        <time>2013-07-07T09:26:48Z</time>
      </trkpt>
      <trkpt lat="49.94338" lon="1.87784">
        <ele>108.5</ele>
        <time>2013-07-07T09:27:01Z</time>
      </trkpt>
      <trkpt lat="49.94344" lon="1.87804">
        <ele>109.5</ele>
        <time>2013-07-07T09:27:08Z</time>
      </trkpt>
      <trkpt lat="49.94357" lon="1.87816">
        <ele>111</ele>
        <time>2013-07-07T09:27:20Z</time>
      </trkpt>
      <trkpt lat="49.94369" lon="1.87824">
        <ele>110.6</ele>
        <time>2013-07-07T09:27:31Z</time>
      </trkpt>
      <trkpt lat="49.94382" lon="1.87833">
        <ele>110.2</ele>
        <time>2013-07-07T09:27:42Z</time>
      </trkpt>
      <trkpt lat="49.94395" lon="1.87844">
        <ele>109.4</ele>
        <time>2013-07-07T09:27:54Z</time>
      </trkpt>
      <trkpt lat="49.94406" lon="1.87858">
        <ele>108.5</ele>
        <time>2013-07-07T09:28:04Z</time>
      </trkpt>
      <trkpt lat="49.94419" lon="1.87871">
        <ele>107.5</ele>
        <time>2013-07-07T09:28:14Z</time>
      </trkpt>
      <trkpt lat="49.94429" lon="1.87884">
        <ele>106.6</ele>
        <time>2013-07-07T09:28:24Z</time>
      </trkpt>
      <trkpt lat="49.94441" lon="1.87898">
        <ele>105.5</ele>
        <time>2013-07-07T09:28:33Z</time>
      </trkpt>
      <trkpt lat="49.94452" lon="1.87911">
        <ele>103</ele>
        <time>2013-07-07T09:28:42Z</time>
      </trkpt>
      <trkpt lat="49.9446" lon="1.87928">
        <ele>101.2</ele>
        <time>2013-07-07T09:28:53Z</time>
      </trkpt>
      <trkpt lat="49.94464" lon="1.87948">
        <ele>98.3</ele>
        <time>2013-07-07T09:29:04Z</time>
      </trkpt>
      <trkpt lat="49.94474" lon="1.87963">
        <ele>100.9</ele>
        <time>2013-07-07T09:29:15Z</time>
      </trkpt>
      <trkpt lat="49.94485" lon="1.87978">
        <ele>102.5</ele>
        <time>2013-07-07T09:29:24Z</time>
      </trkpt>
      <trkpt lat="49.94494" lon="1.87994">
        <ele>100</ele>
        <time>2013-07-07T09:29:34Z</time>
      </trkpt>
      <trkpt lat="49.945" lon="1.88014">
        <ele>98</ele>
        <time>2013-07-07T09:29:46Z</time>
      </trkpt>
      <trkpt lat="49.94509" lon="1.8803">
        <ele>100</ele>
        <time>2013-07-07T09:29:57Z</time>
      </trkpt>
      <trkpt lat="49.94519" lon="1.88046">
        <ele>103.5</ele>
        <time>2013-07-07T09:30:06Z</time>
      </trkpt>
      <trkpt lat="49.94527" lon="1.88064">
        <ele>104.9</ele>
        <time>2013-07-07T09:30:16Z</time>
      </trkpt>
      <trkpt lat="49.94536" lon="1.8808">
        <ele>106.2</ele>
        <time>2013-07-07T09:30:25Z</time>
      </trkpt>
      <trkpt lat="49.94544" lon="1.88098">
        <ele>107.7</ele>
        <time>2013-07-07T09:30:34Z</time>
      </trkpt>
      <trkpt lat="49.94553" lon="1.88116">
        <ele>110.6</ele>
        <time>2013-07-07T09:30:46Z</time>
      </trkpt>
      <trkpt lat="49.94561" lon="1.88132">
        <ele>113.8</ele>
        <time>2013-07-07T09:30:55Z</time>
      </trkpt>
      <trkpt lat="49.94568" lon="1.88151">
        <ele>113.3</ele>
        <time>2013-07-07T09:31:06Z</time>
      </trkpt>
      <trkpt lat="49.94577" lon="1.88169">
        <ele>111.1</ele>
        <time>2013-07-07T09:31:16Z</time>
      </trkpt>
      <trkpt lat="49.94586" lon="1.88187">
        <ele>109.2</ele>
        <time>2013-07-07T09:31:29Z</time>
      </trkpt>
      <trkpt lat="49.94593" lon="1.88205">
        <ele>108.2</ele>
        <time>2013-07-07T09:31:38Z</time>
      </trkpt>
      <trkpt lat="49.94602" lon="1.88221">
        <ele>107.1</ele>
        <time>2013-07-07T09:31:49Z</time>
      </trkpt>
      <trkpt lat="49.94608" lon="1.8824">
        <ele>107</ele>
        <time>2013-07-07T09:31:59Z</time>
      </trkpt>
      <trkpt lat="49.94615" lon="1.8826">
        <ele>111.4</ele>
        <time>2013-07-07T09:32:10Z</time>
      </trkpt>
      <trkpt lat="49.94622" lon="1.88278">
        <ele>112.5</ele>
        <time>2013-07-07T09:32:20Z</time>
      </trkpt>
      <trkpt lat="49.94628" lon="1.88297">
        <ele>111.3</ele>
        <time>2013-07-07T09:32:31Z</time>
      </trkpt>
      <trkpt lat="49.94635" lon="1.88316">
        <ele>109</ele>
        <time>2013-07-07T09:32:40Z</time>
      </trkpt>
      <trkpt lat="49.94644" lon="1.88333">
        <ele>106.9</ele>
        <time>2013-07-07T09:32:51Z</time>
      </trkpt>
      <trkpt lat="49.94651" lon="1.88352">
        <ele>106.7</ele>
        <time>2013-07-07T09:33:02Z</time>
      </trkpt>
      <trkpt lat="49.9466" lon="1.88367">
        <ele>107.7</ele>
        <time>2013-07-07T09:33:11Z</time>
      </trkpt>
      <trkpt lat="49.94668" lon="1.88387">
        <ele>109.1</ele>
        <time>2013-07-07T09:33:24Z</time>
      </trkpt>
      <trkpt lat="49.94678" lon="1.88403">
        <ele>110</ele>
        <time>2013-07-07T09:33:36Z</time>
      </trkpt>
      <trkpt lat="49.94685" lon="1.88422">
        <ele>110.8</ele>
        <time>2013-07-07T09:33:46Z</time>
      </trkpt>
      <trkpt lat="49.94691" lon="1.88442">
        <ele>111.5</ele>
        <time>2013-07-07T09:33:56Z</time>
      </trkpt>
      <trkpt lat="49.94698" lon="1.88462">
        <ele>113.1</ele>
        <time>2013-07-07T09:34:08Z</time>
      </trkpt>
      <trkpt lat="49.94706" lon="1.88478">
        <ele>118</ele>
        <time>2013-07-07T09:34:23Z</time>
      </trkpt>
      <trkpt lat="49.94712" lon="1.88499">
        <ele>117</ele>
        <time>2013-07-07T09:34:36Z</time>
      </trkpt>
      <trkpt lat="49.94716" lon="1.88519">
        <ele>116.4</ele>
        <time>2013-07-07T09:34:45Z</time>
      </trkpt>
      <trkpt lat="49.94726" lon="1.88538">
        <ele>115.6</ele>
        <time>2013-07-07T09:34:56Z</time>
      </trkpt>
      <trkpt lat="49.94737" lon="1.88551">
        <ele>114.6</ele>
        <time>2013-07-07T09:35:09Z</time>
      </trkpt>
      <trkpt lat="49.94744" lon="1.88568">
        <ele>113.3</ele>
        <time>2013-07-07T09:35:26Z</time>
      </trkpt>
      <trkpt lat="49.94754" lon="1.88584">
        <ele>111.9</ele>
        <time>2013-07-07T09:35:36Z</time>
      </trkpt>
      <trkpt lat="49.94765" lon="1.88598">
        <ele>110.4</ele>
        <time>2013-07-07T09:35:45Z</time>
      </trkpt>
      <trkpt lat="49.94776" lon="1.88611">
        <ele>108.9</ele>
        <time>2013-07-07T09:35:53Z</time>
      </trkpt>
      <trkpt lat="49.94787" lon="1.88624">
        <ele>106</ele>
        <time>2013-07-07T09:36:02Z</time>
      </trkpt>
      <trkpt lat="49.948" lon="1.88635">
        <ele>106.3</ele>
        <time>2013-07-07T09:36:11Z</time>
      </trkpt>
      <trkpt lat="49.94811" lon="1.88648">
        <ele>108.2</ele>
        <time>2013-07-07T09:36:21Z</time>
      </trkpt>
      <trkpt lat="49.94822" lon="1.8866">
        <ele>109.9</ele>
        <time>2013-07-07T09:36:31Z</time>
      </trkpt>
      <trkpt lat="49.94836" lon="1.88665">
        <ele>110.6</ele>
        <time>2013-07-07T09:36:40Z</time>
      </trkpt>
      <trkpt lat="49.94848" lon="1.88675">
        <ele>109.5</ele>
        <time>2013-07-07T09:36:48Z</time>
      </trkpt>
      <trkpt lat="49.94862" lon="1.88679">
        <ele>108</ele>
        <time>2013-07-07T09:36:59Z</time>
      </trkpt>
      <trkpt lat="49.94873" lon="1.88693">
        <ele>106</ele>
        <time>2013-07-07T09:37:10Z</time>
      </trkpt>
      <trkpt lat="49.94885" lon="1.88703">
        <ele>104.7</ele>
        <time>2013-07-07T09:37:19Z</time>
      </trkpt>
      <trkpt lat="49.94898" lon="1.8871">
        <ele>107.2</ele>
        <time>2013-07-07T09:37:27Z</time>
      </trkpt>
      <trkpt lat="49.94909" lon="1.88723">
        <ele>104</ele>
        <time>2013-07-07T09:37:41Z</time>
      </trkpt>
      <trkpt lat="49.94921" lon="1.88733">
        <ele>104</ele>
        <time>2013-07-07T09:37:53Z</time>
      </trkpt>
      <trkpt lat="49.94934" lon="1.88744">
        <ele>104</ele>
        <time>2013-07-07T09:38:00Z</time>
      </trkpt>
      <trkpt lat="49.94947" lon="1.88753">
        <ele>104.9</ele>
        <time>2013-07-07T09:38:07Z</time>
      </trkpt>
      <trkpt lat="49.94959" lon="1.88762">
        <ele>106.8</ele>
        <time>2013-07-07T09:38:17Z</time>
      </trkpt>
      <trkpt lat="49.94972" lon="1.88771">
        <ele>109.5</ele>
        <time>2013-07-07T09:38:27Z</time>
      </trkpt>
      <trkpt lat="49.94985" lon="1.8878">
        <ele>112</ele>
        <time>2013-07-07T09:38:37Z</time>
      </trkpt>
      <trkpt lat="49.94997" lon="1.88789">
        <ele>112</ele>
        <time>2013-07-07T09:38:46Z</time>
      </trkpt>
      <trkpt lat="49.9501" lon="1.88798">
        <ele>112</ele>
        <time>2013-07-07T09:39:00Z</time>
      </trkpt>
      <trkpt lat="49.95023" lon="1.88807">
        <ele>112.6</ele>
        <time>2013-07-07T09:39:10Z</time>
      </trkpt>
      <trkpt lat="49.95036" lon="1.88816">
        <ele>113.5</ele>
        <time>2013-07-07T09:39:21Z</time>
      </trkpt>
      <trkpt lat="49.95047" lon="1.88828">
        <ele>114.4</ele>
        <time>2013-07-07T09:39:31Z</time>
      </trkpt>
      <trkpt lat="49.95061" lon="1.88835">
        <ele>115.2</ele>
        <time>2013-07-07T09:39:41Z</time>
      </trkpt>
      <trkpt lat="49.95072" lon="1.88849">
        <ele>116.2</ele>
        <time>2013-07-07T09:39:52Z</time>
      </trkpt>
      <trkpt lat="49.95082" lon="1.88865">
        <ele>117</ele>
        <time>2013-07-07T09:40:02Z</time>
      </trkpt>
      <trkpt lat="49.95092" lon="1.88881">
        <ele>118</ele>
        <time>2013-07-07T09:40:13Z</time>
      </trkpt>
      <trkpt lat="49.95102" lon="1.88898">
        <ele>118.9</ele>
        <time>2013-07-07T09:40:24Z</time>
      </trkpt>
      <trkpt lat="49.95111" lon="1.88915">
        <ele>117.7</ele>
        <time>2013-07-07T09:40:34Z</time>
      </trkpt>
      <trkpt lat="49.95122" lon="1.88926">
        <ele>117</ele>
        <time>2013-07-07T09:40:44Z</time>
      </trkpt>
      <trkpt lat="49.95135" lon="1.88935">
        <ele>116.4</ele>
        <time>2013-07-07T09:40:53Z</time>
      </trkpt>
      <trkpt lat="49.95146" lon="1.88949">
        <ele>115.6</ele>
        <time>2013-07-07T09:41:04Z</time>
      </trkpt>
      <trkpt lat="49.95158" lon="1.88961">
        <ele>114.9</ele>
        <time>2013-07-07T09:41:14Z</time>
      </trkpt>
      <trkpt lat="49.95164" lon="1.88979">
        <ele>114.3</ele>
        <time>2013-07-07T09:41:22Z</time>
      </trkpt>
      <trkpt lat="49.95173" lon="1.88996">
        <ele>103.8</ele>
        <time>2013-07-07T09:41:33Z</time>
      </trkpt>
      <trkpt lat="49.95183" lon="1.89013">
        <ele>99.7</ele>
        <time>2013-07-07T09:41:45Z</time>
      </trkpt>
      <trkpt lat="49.95195" lon="1.89024">
        <ele>100.6</ele>
        <time>2013-07-07T09:41:54Z</time>
      </trkpt>
      <trkpt lat="49.95205" lon="1.89037">
        <ele>101.6</ele>
        <time>2013-07-07T09:42:05Z</time>
      </trkpt>
      <trkpt lat="49.95215" lon="1.89053">
        <ele>101.8</ele>
        <time>2013-07-07T09:42:15Z</time>
      </trkpt>
      <trkpt lat="49.95227" lon="1.89065">
        <ele>104.2</ele>
        <time>2013-07-07T09:42:24Z</time>
      </trkpt>
      <trkpt lat="49.95239" lon="1.89076">
        <ele>102.9</ele>
        <time>2013-07-07T09:42:32Z</time>
      </trkpt>
      <trkpt lat="49.95252" lon="1.89082">
        <ele>101.9</ele>
        <time>2013-07-07T09:42:41Z</time>
      </trkpt>
      <trkpt lat="49.95259" lon="1.891">
        <ele>100.6</ele>
        <time>2013-07-07T09:42:52Z</time>
      </trkpt>
      <trkpt lat="49.9527" lon="1.89114">
        <ele>99.6</ele>
        <time>2013-07-07T09:43:01Z</time>
      </trkpt>
      <trkpt lat="49.95283" lon="1.89126">
        <ele>99.6</ele>
        <time>2013-07-07T09:43:12Z</time>
      </trkpt>
      <trkpt lat="49.95295" lon="1.89138">
        <ele>100.7</ele>
        <time>2013-07-07T09:43:22Z</time>
      </trkpt>
      <trkpt lat="49.95306" lon="1.89153">
        <ele>101.9</ele>
        <time>2013-07-07T09:43:33Z</time>
      </trkpt>
      <trkpt lat="49.95316" lon="1.8917">
        <ele>98.3</ele>
        <time>2013-07-07T09:43:43Z</time>
      </trkpt>
      <trkpt lat="49.95326" lon="1.89184">
        <ele>96.6</ele>
        <time>2013-07-07T09:43:53Z</time>
      </trkpt>
      <trkpt lat="49.95336" lon="1.89201">
        <ele>94.8</ele>
        <time>2013-07-07T09:44:03Z</time>
      </trkpt>
      <trkpt lat="49.95344" lon="1.89219">
        <ele>93</ele>
        <time>2013-07-07T09:44:13Z</time>
      </trkpt>
      <trkpt lat="49.95353" lon="1.89236">
        <ele>91</ele>
        <time>2013-07-07T09:44:24Z</time>
      </trkpt>
      <trkpt lat="49.95362" lon="1.89253">
        <ele>91</ele>
        <time>2013-07-07T09:44:34Z</time>
      </trkpt>
      <trkpt lat="49.95371" lon="1.89269">
        <ele>91.6</ele>
        <time>2013-07-07T09:44:43Z</time>
      </trkpt>
      <trkpt lat="49.95381" lon="1.89283">
        <ele>92.6</ele>
        <time>2013-07-07T09:44:51Z</time>
      </trkpt>
      <trkpt lat="49.95391" lon="1.89298">
        <ele>89.1</ele>
        <time>2013-07-07T09:45:01Z</time>
      </trkpt>
      <trkpt lat="49.954" lon="1.89314">
        <ele>86.8</ele>
        <time>2013-07-07T09:45:11Z</time>
      </trkpt>
      <trkpt lat="49.9541" lon="1.8933">
        <ele>87</ele>
        <time>2013-07-07T09:45:22Z</time>
      </trkpt>
      <trkpt lat="49.95421" lon="1.89345">
        <ele>85.3</ele>
        <time>2013-07-07T09:45:31Z</time>
      </trkpt>
      <trkpt lat="49.95432" lon="1.89359">
        <ele>83.2</ele>
        <time>2013-07-07T09:45:42Z</time>
      </trkpt>
      <trkpt lat="49.95445" lon="1.89369">
        <ele>86.3</ele>
        <time>2013-07-07T09:45:51Z</time>
      </trkpt>
      <trkpt lat="49.95459" lon="1.89376">
        <ele>90.4</ele>
        <time>2013-07-07T09:46:01Z</time>
      </trkpt>
      <trkpt lat="49.95473" lon="1.89383">
        <ele>88</ele>
        <time>2013-07-07T09:46:10Z</time>
      </trkpt>
      <trkpt lat="49.95486" lon="1.89391">
        <ele>86.1</ele>
        <time>2013-07-07T09:46:21Z</time>
      </trkpt>
      <trkpt lat="49.955" lon="1.89394">
        <ele>84.5</ele>
        <time>2013-07-07T09:46:32Z</time>
      </trkpt>
      <trkpt lat="49.95515" lon="1.89396">
        <ele>83.7</ele>
        <time>2013-07-07T09:46:40Z</time>
      </trkpt>
      <trkpt lat="49.95528" lon="1.89404">
        <ele>82.6</ele>
        <time>2013-07-07T09:46:51Z</time>
      </trkpt>
      <trkpt lat="49.95541" lon="1.89412">
        <ele>81.6</ele>
        <time>2013-07-07T09:47:01Z</time>
      </trkpt>
      <trkpt lat="49.95551" lon="1.89427">
        <ele>81</ele>
        <time>2013-07-07T09:47:11Z</time>
      </trkpt>
      <trkpt lat="49.95561" lon="1.89443">
        <ele>80.6</ele>
        <time>2013-07-07T09:47:21Z</time>
      </trkpt>
      <trkpt lat="49.9557" lon="1.8946">
        <ele>80.7</ele>
        <time>2013-07-07T09:47:33Z</time>
      </trkpt>
      <trkpt lat="49.9558" lon="1.89476">
        <ele>82.5</ele>
        <time>2013-07-07T09:47:46Z</time>
      </trkpt>
      <trkpt lat="49.95588" lon="1.89493">
        <ele>82.2</ele>
        <time>2013-07-07T09:47:53Z</time>
      </trkpt>
      <trkpt lat="49.95595" lon="1.89511">
        <ele>80</ele>
        <time>2013-07-07T09:48:01Z</time>
      </trkpt>
      <trkpt lat="49.95604" lon="1.89528">
        <ele>78.3</ele>
        <time>2013-07-07T09:48:10Z</time>
      </trkpt>
      <trkpt lat="49.95613" lon="1.89544">
        <ele>75.2</ele>
        <time>2013-07-07T09:48:20Z</time>
      </trkpt>
      <trkpt lat="49.95622" lon="1.89561">
        <ele>73.7</ele>
        <time>2013-07-07T09:48:30Z</time>
      </trkpt>
      <trkpt lat="49.95634" lon="1.89575">
        <ele>73.2</ele>
        <time>2013-07-07T09:48:41Z</time>
      </trkpt>
      <trkpt lat="49.95645" lon="1.8959">
        <ele>73</ele>
        <time>2013-07-07T09:48:50Z</time>
      </trkpt>
      <trkpt lat="49.95655" lon="1.89604">
        <ele>72.4</ele>
        <time>2013-07-07T09:48:59Z</time>
      </trkpt>
      <trkpt lat="49.95668" lon="1.89615">
        <ele>71.2</ele>
        <time>2013-07-07T09:49:08Z</time>
      </trkpt>
      <trkpt lat="49.95678" lon="1.89629">
        <ele>70.1</ele>
        <time>2013-07-07T09:49:18Z</time>
      </trkpt>
      <trkpt lat="49.9569" lon="1.89639">
        <ele>71.2</ele>
        <time>2013-07-07T09:49:29Z</time>
      </trkpt>
      <trkpt lat="49.95704" lon="1.89648">
        <ele>72.2</ele>
        <time>2013-07-07T09:49:40Z</time>
      </trkpt>
      <trkpt lat="49.95716" lon="1.89661">
        <ele>73.2</ele>
        <time>2013-07-07T09:49:50Z</time>
      </trkpt>
      <trkpt lat="49.95728" lon="1.89672">
        <ele>74.2</ele>
        <time>2013-07-07T09:50:00Z</time>
      </trkpt>
      <trkpt lat="49.95738" lon="1.89689">
        <ele>74.9</ele>
        <time>2013-07-07T09:50:08Z</time>
      </trkpt>
      <trkpt lat="49.95748" lon="1.89703">
        <ele>75.8</ele>
        <time>2013-07-07T09:50:17Z</time>
      </trkpt>
      <trkpt lat="49.95752" lon="1.89724">
        <ele>74.1</ele>
        <time>2013-07-07T09:50:26Z</time>
      </trkpt>
      <trkpt lat="49.95756" lon="1.89744">
        <ele>72.1</ele>
        <time>2013-07-07T09:50:38Z</time>
      </trkpt>
      <trkpt lat="49.95761" lon="1.89764">
        <ele>70.9</ele>
        <time>2013-07-07T09:50:48Z</time>
      </trkpt>
      <trkpt lat="49.95764" lon="1.89785">
        <ele>69.3</ele>
        <time>2013-07-07T09:50:57Z</time>
      </trkpt>
      <trkpt lat="49.9577" lon="1.89806">
        <ele>63</ele>
        <time>2013-07-07T09:51:09Z</time>
      </trkpt>
      <trkpt lat="49.95777" lon="1.89824">
        <ele>63</ele>
        <time>2013-07-07T09:51:17Z</time>
      </trkpt>
      <trkpt lat="49.95786" lon="1.89841">
        <ele>62</ele>
        <time>2013-07-07T09:51:26Z</time>
      </trkpt>
      <trkpt lat="49.95797" lon="1.89853">
        <ele>60.4</ele>
        <time>2013-07-07T09:51:38Z</time>
      </trkpt>
      <trkpt lat="49.95806" lon="1.89872">
        <ele>59</ele>
        <time>2013-07-07T09:51:49Z</time>
      </trkpt>
      <trkpt lat="49.95804" lon="1.89894">
        <ele>58.2</ele>
        <time>2013-07-07T09:51:59Z</time>
      </trkpt>
      <trkpt lat="49.95811" lon="1.89907">
        <ele>60.8</ele>
        <time>2013-07-07T09:52:09Z</time>
      </trkpt>
      <trkpt lat="49.95826" lon="1.89906">
        <ele>64.6</ele>
        <time>2013-07-07T09:52:18Z</time>
      </trkpt>
      <trkpt lat="49.95841" lon="1.89904">
        <ele>63.1</ele>
        <time>2013-07-07T09:52:28Z</time>
      </trkpt>
      <trkpt lat="49.95856" lon="1.89901">
        <ele>63.7</ele>
        <time>2013-07-07T09:52:36Z</time>
      </trkpt>
      <trkpt lat="49.9587" lon="1.89899">
        <ele>64.4</ele>
        <time>2013-07-07T09:52:46Z</time>
      </trkpt>
      <trkpt lat="49.95885" lon="1.899">
        <ele>64.9</ele>
        <time>2013-07-07T09:52:53Z</time>
      </trkpt>
      <trkpt lat="49.95898" lon="1.89899">
        <ele>58.9</ele>
        <time>2013-07-07T09:53:05Z</time>
      </trkpt>
      <trkpt lat="49.95912" lon="1.89895">
        <ele>58.2</ele>
        <time>2013-07-07T09:53:14Z</time>
      </trkpt>
      <trkpt lat="49.95926" lon="1.89893">
        <ele>57.3</ele>
        <time>2013-07-07T09:53:24Z</time>
      </trkpt>
      <trkpt lat="49.9594" lon="1.89892">
        <ele>56.5</ele>
        <time>2013-07-07T09:53:34Z</time>
      </trkpt>
      <trkpt lat="49.95954" lon="1.89887">
        <ele>54.9</ele>
        <time>2013-07-07T09:53:48Z</time>
      </trkpt>
      <trkpt lat="49.95967" lon="1.89881">
        <ele>53.1</ele>
        <time>2013-07-07T09:54:01Z</time>
      </trkpt>
      <trkpt lat="49.95981" lon="1.89879">
        <ele>52</ele>
        <time>2013-07-07T09:54:13Z</time>
      </trkpt>
      <trkpt lat="49.95995" lon="1.89878">
        <ele>51.2</ele>
        <time>2013-07-07T09:54:24Z</time>
      </trkpt>
      <trkpt lat="49.96009" lon="1.89874">
        <ele>49.5</ele>
        <time>2013-07-07T09:54:36Z</time>
      </trkpt>
      <trkpt lat="49.96022" lon="1.89866">
        <ele>44.9</ele>
        <time>2013-07-07T09:54:46Z</time>
      </trkpt>
      <trkpt lat="49.96035" lon="1.89857">
        <ele>46.2</ele>
        <time>2013-07-07T09:54:55Z</time>
      </trkpt>
      <trkpt lat="49.96048" lon="1.89845">
        <ele>41</ele>
        <time>2013-07-07T09:55:05Z</time>
      </trkpt>
      <trkpt lat="49.96061" lon="1.89835">
        <ele>38.5</ele>
        <time>2013-07-07T09:55:13Z</time>
      </trkpt>
      <trkpt lat="49.96074" lon="1.89829">
        <ele>36.5</ele>
        <time>2013-07-07T09:55:20Z</time>
      </trkpt>
      <trkpt lat="49.96087" lon="1.89819">
        <ele>32.2</ele>
        <time>2013-07-07T09:55:31Z</time>
      </trkpt>
      <trkpt lat="49.96102" lon="1.89801">
        <ele>31.4</ele>
        <time>2013-07-07T09:55:33Z</time>
      </trkpt>
      <trkpt lat="49.96104" lon="1.89797">
        <ele>31</ele>
        <time>2013-07-07T09:55:34Z</time>
      </trkpt>
      <trkpt lat="49.96103" lon="1.89808">
        <ele>31.6</ele>
        <time>2013-07-07T09:55:39Z</time>
      </trkpt>
      <trkpt lat="49.96117" lon="1.89805">
        <ele>33.1</ele>
        <time>2013-07-07T09:55:54Z</time>
      </trkpt>
      <trkpt lat="49.96131" lon="1.89797">
        <ele>34</ele>
        <time>2013-07-07T09:56:08Z</time>
      </trkpt>
      <trkpt lat="49.96144" lon="1.89791">
        <ele>34</ele>
        <time>2013-07-07T09:56:18Z</time>
      </trkpt>
      <trkpt lat="49.96158" lon="1.89789">
        <ele>35.8</ele>
        <time>2013-07-07T09:56:29Z</time>
      </trkpt>
      <trkpt lat="49.96174" lon="1.89788">
        <ele>33.5</ele>
        <time>2013-07-07T09:56:47Z</time>
      </trkpt>
      <trkpt lat="49.96188" lon="1.89786">
        <ele>32.4</ele>
        <time>2013-07-07T09:56:54Z</time>
      </trkpt>
      <trkpt lat="49.96203" lon="1.89781">
        <ele>34.6</ele>
        <time>2013-07-07T09:57:04Z</time>
      </trkpt>
      <trkpt lat="49.96218" lon="1.89782">
        <ele>34.7</ele>
        <time>2013-07-07T09:57:13Z</time>
      </trkpt>
      <trkpt lat="49.96225" lon="1.89782">
        <ele>32.5</ele>
        <time>2013-07-07T09:57:24Z</time>
      </trkpt>
      <trkpt lat="49.96227" lon="1.89797">
        <ele>31.7</ele>
        <time>2013-07-07T09:57:32Z</time>
      </trkpt>
      <trkpt lat="49.96238" lon="1.89809">
        <ele>30.7</ele>
        <time>2013-07-07T09:57:41Z</time>
      </trkpt>
      <trkpt lat="49.96252" lon="1.89803">
        <ele>29.7</ele>
        <time>2013-07-07T09:57:51Z</time>
      </trkpt>
      <trkpt lat="49.96264" lon="1.89796">
        <ele>30</ele>
        <time>2013-07-07T09:58:05Z</time>
      </trkpt>
      <trkpt lat="49.96279" lon="1.89785">
        <ele>31.3</ele>
        <time>2013-07-07T09:58:14Z</time>
      </trkpt>
      <trkpt lat="49.96293" lon="1.89783">
        <ele>31.2</ele>
        <time>2013-07-07T09:58:20Z</time>
      </trkpt>
      <trkpt lat="49.963" lon="1.89785">
        <ele>25.5</ele>
        <time>2013-07-07T09:59:06Z</time>
      </trkpt>
    </trkseg>
  </trk>
</gpx>